Data Archive--October, 2003

Date Time Heat Index Current Temp Wind Chill High Temp Low Temp Humidity Dew Point Wind Speed Gust Wind Direction Rain Barometer
10/01/2003 12:00 a 44.7 44.7 44.7 45.3 44.2 94 43.1 0.0 0.0 --- 0.00 30.040
10/01/2003 12:30 a 44.1 44.1 44.1 44.2 43.8 94 42.5 0.0 0.0 --- 0.00 30.037
10/01/2003 1:00 a 43.6 43.6 43.6 43.8 43.4 94 42.0 0.0 0.0 --- 0.00 30.031
10/01/2003 1:30 a 43.4 43.4 43.4 43.5 43.3 94 41.8 0.0 0.0 --- 0.00 30.028
10/01/2003 2:00 a 43.5 43.5 43.5 43.7 43.3 95 42.2 0.0 0.0 --- 0.00 30.032
10/01/2003 2:30 a 43.4 43.4 43.4 43.7 43.2 95 42.1 0.0 0.0 --- 0.00 30.031
10/01/2003 3:00 a 44.5 44.5 44.5 44.8 43.7 95 43.2 0.0 0.0 --- 0.00 30.029
10/01/2003 3:30 a 44.6 44.6 44.6 44.9 44.4 95 43.3 0.0 0.0 --- 0.00 30.021
10/01/2003 4:00 a 45.0 45.0 45.0 45.2 44.9 95 43.7 0.0 0.0 --- 0.00 30.011
10/01/2003 4:30 a 45.2 45.2 45.2 45.5 45.0 95 43.9 0.0 0.0 --- 0.00 30.007
10/01/2003 5:00 a 45.8 45.8 45.8 46.2 45.5 95 44.5 0.0 0.0 --- 0.00 30.004
10/01/2003 5:30 a 46.3 46.3 46.3 46.3 46.2 95 44.9 0.0 0.0 --- 0.00 30.004
10/01/2003 6:00 a 46.3 46.3 46.3 46.5 46.2 95 44.9 0.0 0.0 --- 0.00 30.009
10/01/2003 6:30 a 46.8 46.8 46.8 47.0 46.5 95 45.4 0.0 0.0 --- 0.00 30.016
10/01/2003 7:00 a 47.1 47.1 47.1 47.2 46.9 95 45.7 0.0 0.0 --- 0.00 30.022
10/01/2003 7:30 a 47.1 47.1 47.1 47.7 46.8 95 45.7 0.0 0.0 --- 0.00 30.027
10/01/2003 8:00 a 48.5 48.5 48.5 49.1 47.7 94 46.9 0.0 0.0 --- 0.00 30.035
10/01/2003 8:30 a 49.8 49.8 49.8 50.8 49.1 89 46.7 0.0 0.0 --- 0.01 30.050
10/01/2003 9:00 a 51.3 51.3 51.3 51.9 50.7 92 49.1 0.0 0.0 --- 0.00 30.043
10/01/2003 9:30 a 53.4 53.4 53.4 55.8 51.9 78 46.7 0.0 2.0 SSE 0.00 30.039
10/01/2003 10:00 a 56.1 56.1 56.1 57.0 55.6 67 45.3 0.0 3.0 ESE 0.00 30.044
10/01/2003 10:30 a 56.1 56.1 56.1 56.4 55.6 67 45.3 0.0 1.0 ESE 0.00 30.037
10/01/2003 11:00 a 56.1 56.1 56.1 57.1 55.7 64 44.1 0.0 1.0 ESE 0.00 30.039
10/01/2003 11:30 a 58.1 58.1 58.1 59.1 57.1 61 44.7 0.0 1.0 ESE 0.00 30.032
10/01/2003 12:00 p 59.7 59.7 59.7 60.7 59.0 58 44.9 0.0 2.0 ESE 0.00 30.025
10/01/2003 12:30 p 61.1 61.1 61.1 61.5 60.7 58 46.2 0.0 1.0 ESE 0.00 30.015
10/01/2003 1:00 p 65.4 65.4 65.4 71.3 61.4 40 40.5 0.0 4.0 ESE 0.00 30.006
10/01/2003 1:30 p 64.6 64.6 64.6 71.8 61.4 56 48.6 0.0 2.0 ESE 0.01 29.995
10/01/2003 2:00 p 60.8 60.8 60.8 61.6 59.8 60 46.8 0.0 1.0 --- 0.00 29.983
10/01/2003 2:30 p 61.6 61.6 61.6 62.1 60.1 56 45.8 0.0 1.0 --- 0.00 29.970
10/01/2003 3:00 p 61.7 61.7 61.7 61.9 61.2 60 47.7 0.0 1.0 SSE 0.00 29.970
10/01/2003 3:30 p 62.2 62.2 62.2 63.1 61.3 55 45.9 0.0 2.0 SE 0.00 29.954
10/01/2003 4:00 p 61.9 61.9 61.9 63.1 60.1 60 47.9 0.0 2.0 SE 0.00 29.944
10/01/2003 4:30 p 59.3 59.3 59.3 60.1 58.6 67 48.4 0.0 0.0 --- 0.00 29.949
10/01/2003 5:00 p 59.2 59.2 59.2 59.6 58.6 64 47.0 0.0 0.0 --- 0.00 29.945
10/01/2003 5:30 p 58.8 58.8 58.8 59.4 58.1 67 47.9 0.0 0.0 --- 0.00 29.947
10/01/2003 6:00 p 57.7 57.7 57.7 58.1 57.3 70 48.0 0.0 0.0 --- 0.01 29.952
10/01/2003 6:30 p 56.7 56.7 56.7 57.3 56.0 71 47.4 0.0 0.0 --- 0.00 29.955
10/01/2003 7:00 p 55.6 55.6 55.6 56.1 55.2 73 47.1 0.0 0.0 --- 0.00 29.952
10/01/2003 7:30 p 55.0 55.0 55.0 55.2 54.6 77 47.9 0.0 0.0 --- 0.00 29.947
10/01/2003 8:00 p 54.5 54.5 54.5 54.6 54.4 76 47.1 0.0 0.0 --- 0.00 29.953
10/01/2003 8:30 p 54.2 54.2 54.2 54.4 54.0 80 48.2 0.0 0.0 --- 0.00 29.948
10/01/2003 9:00 p 53.7 53.7 53.7 54.0 53.6 81 48.0 0.0 0.0 --- 0.00 29.948
10/01/2003 9:30 p 53.8 53.8 53.8 53.9 53.8 78 47.1 0.0 0.0 --- 0.00 29.952
10/01/2003 10:00 p 53.5 53.5 53.5 53.8 53.4 78 46.8 0.0 0.0 --- 0.00 29.947
10/01/2003 10:30 p 53.2 53.2 53.2 53.5 53.0 79 46.9 0.0 0.0 --- 0.00 29.950
10/01/2003 11:00 p 53.0 53.0 53.0 53.1 52.5 85 48.6 0.0 0.0 --- 0.00 29.946
10/01/2003 11:30 p 51.5 51.5 51.5 52.5 51.0 94 49.8 0.0 0.0 --- 0.00 29.933
10/02/2003 12:00 a 50.9 50.9 50.9 51.1 50.6 94 49.2 0.0 0.0 --- 0.00 29.923
10/02/2003 12:30 a 49.8 49.8 49.8 50.6 49.1 94 48.1 0.0 0.0 --- 0.00 29.912
10/02/2003 1:00 a 48.6 48.6 48.6 49.1 48.1 95 47.2 0.0 0.0 --- 0.00 29.904
10/02/2003 1:30 a 48.0 48.0 48.0 48.2 47.9 96 46.9 0.0 0.0 --- 0.00 29.904
10/02/2003 2:00 a 48.3 48.3 48.3 48.3 48.1 95 46.9 0.0 0.0 --- 0.00 29.898
10/02/2003 2:30 a 47.4 47.4 47.4 48.1 46.8 95 46.0 0.0 0.0 --- 0.00 29.893
10/02/2003 3:00 a 46.4 46.4 46.4 46.8 45.9 95 45.0 0.0 0.0 --- 0.00 29.889
10/02/2003 3:30 a 45.4 45.4 45.4 45.9 44.9 95 44.1 0.0 0.0 --- 0.00 29.887
10/02/2003 4:00 a 44.5 44.5 44.5 44.9 44.0 95 43.2 0.0 0.0 --- 0.00 29.885
10/02/2003 4:30 a 43.6 43.6 43.6 44.0 43.4 95 42.3 0.0 0.0 --- 0.00 29.880
10/02/2003 5:00 a 43.1 43.1 43.1 43.5 42.7 95 41.8 0.0 0.0 --- 0.00 29.878
10/02/2003 5:30 a 42.3 42.3 42.3 42.7 42.0 96 41.2 0.0 0.0 --- 0.00 29.881
10/02/2003 6:00 a 41.9 41.9 41.9 42.0 41.7 96 40.8 0.0 0.0 --- 0.00 29.881
10/02/2003 6:30 a 41.7 41.7 41.7 41.9 41.6 96 40.6 0.0 0.0 --- 0.00 29.877
10/02/2003 7:00 a 41.5 41.5 41.5 41.7 41.2 96 40.4 0.0 0.0 --- 0.00 29.880
10/02/2003 7:30 a 41.4 41.4 41.4 41.9 41.1 96 40.3 0.0 0.0 --- 0.01 29.868
10/02/2003 8:00 a 42.8 42.8 42.8 44.1 41.9 97 42.0 0.0 0.0 --- 0.00 29.871
10/02/2003 8:30 a 45.5 45.5 45.5 47.0 44.1 97 44.7 0.0 0.0 --- 0.00 29.865
10/02/2003 9:00 a 48.4 48.4 48.4 49.8 47.0 94 46.8 0.0 0.0 --- 0.00 29.865
10/02/2003 9:30 a 51.1 51.1 51.1 53.0 49.8 89 48.0 0.0 2.0 ESE 0.00 29.868
10/02/2003 10:00 a 53.3 53.3 53.3 53.7 52.9 84 48.6 0.0 2.0 NE 0.00 29.867
10/02/2003 10:30 a 53.6 53.6 53.6 54.0 53.2 73 45.2 0.0 2.0 SSE 0.00 29.869
10/02/2003 11:00 a 54.6 54.6 54.6 56.5 53.6 71 45.4 0.0 4.0 E 0.00 29.861
10/02/2003 11:30 a 56.0 56.0 56.0 57.2 55.5 61 42.8 0.0 2.0 SE 0.00 29.857
10/02/2003 12:00 p 57.5 57.5 57.5 58.2 56.5 58 42.9 0.0 4.0 ESE 0.00 29.849
10/02/2003 12:30 p 57.2 57.2 57.2 58.1 56.4 56 41.7 0.0 3.0 ESE 0.00 29.854
10/02/2003 1:00 p 59.1 59.1 59.1 60.9 56.9 49 40.0 0.0 5.0 SSE 0.00 29.849
10/02/2003 1:30 p 58.0 58.0 58.0 59.5 57.1 46 37.4 0.0 4.0 SE 0.00 29.846
10/02/2003 2:00 p 57.0 57.0 57.0 58.8 56.0 45 35.9 0.0 5.0 SE 0.00 29.843
10/02/2003 2:30 p 57.4 57.4 57.4 57.8 57.1 40 33.3 1.0 4.0 ESE 0.00 29.841
10/02/2003 3:00 p 57.4 57.4 57.4 57.9 56.5 42 34.5 0.0 4.0 NW 0.00 29.841
10/02/2003 3:30 p 56.5 56.5 56.5 56.7 55.9 41 33.1 0.0 3.0 SE 0.00 29.844
10/02/2003 4:00 p 55.4 55.4 55.4 56.0 53.9 39 30.9 1.0 4.0 SSE 0.00 29.853
10/02/2003 4:30 p 53.1 53.1 53.1 53.9 52.8 47 33.4 0.0 5.0 E 0.00 29.861
10/02/2003 5:00 p 52.4 52.4 52.4 52.8 52.2 44 31.1 0.0 3.0 N 0.00 29.865
10/02/2003 5:30 p 52.0 52.0 52.0 52.3 51.6 44 30.8 0.0 5.0 SE 0.00 29.871
10/02/2003 6:00 p 51.2 51.2 51.2 51.6 50.7 41 28.3 0.0 3.0 SE 0.00 29.878
10/02/2003 6:30 p 50.3 50.3 50.3 50.7 49.7 47 30.9 0.0 4.0 NNE 0.00 29.895
10/02/2003 7:00 p 48.6 48.6 48.6 49.7 47.2 55 33.2 0.0 1.0 N 0.00 29.903
10/02/2003 7:30 p 46.9 46.9 46.9 47.2 46.8 56 32.0 0.0 2.0 ESE 0.00 29.915
10/02/2003 8:00 p 46.4 46.4 46.4 46.8 46.1 58 32.4 0.0 1.0 ENE 0.00 29.921
10/02/2003 8:30 p 45.6 45.6 45.6 46.2 45.2 62 33.3 0.0 0.0 --- 0.00 29.941
10/02/2003 9:00 p 45.0 45.0 45.0 45.4 44.5 67 34.7 0.0 1.0 WNW 0.00 29.957
10/02/2003 9:30 p 44.2 44.2 44.2 44.5 43.9 69 34.7 0.0 1.0 SSE 0.00 29.965
10/02/2003 10:00 p 43.9 43.9 43.9 43.9 43.8 70 34.8 0.0 1.0 SSE 0.00 29.968
10/02/2003 10:30 p 44.0 44.0 44.0 44.1 43.8 68 34.1 0.0 3.0 ESE 0.01 29.976
10/02/2003 11:00 p 43.7 43.7 43.7 44.0 43.5 69 34.2 0.0 5.0 E 0.00 29.985
10/02/2003 11:30 p 43.4 43.4 43.4 43.6 43.2 69 33.9 0.0 3.0 SE 0.00 29.982
10/03/2003 12:00 a 42.8 42.8 42.8 43.4 41.7 73 34.8 0.0 2.0 ESE 0.00 29.991
10/03/2003 12:30 a 40.9 40.9 40.9 41.8 40.4 77 34.3 0.0 1.0 ESE 0.00 29.993
10/03/2003 1:00 a 40.1 40.1 40.1 40.6 39.8 79 34.1 0.0 0.0 --- 0.00 29.996
10/03/2003 1:30 a 39.1 39.1 39.1 39.8 38.6 82 34.1 0.0 0.0 --- 0.00 30.004
10/03/2003 2:00 a 38.2 38.2 38.2 38.7 37.7 85 34.1 0.0 0.0 --- 0.00 30.008
10/03/2003 2:30 a 37.2 37.2 37.2 37.8 36.7 87 33.7 0.0 0.0 --- 0.00 30.007
10/03/2003 3:00 a 36.5 36.5 36.5 36.8 36.3 89 33.6 0.0 0.0 --- 0.00 30.007
10/03/2003 3:30 a 35.9 35.9 35.9 36.4 35.3 89 33.0 0.0 0.0 --- 0.00 30.015
10/03/2003 4:00 a 35.1 35.1 35.1 35.3 34.9 91 32.7 0.0 0.0 --- 0.00 30.020
10/03/2003 4:30 a 34.8 34.8 34.8 35.0 34.7 91 32.4 0.0 0.0 --- 0.00 30.028
10/03/2003 5:00 a 34.6 34.6 34.6 34.9 34.2 91 32.2 0.0 0.0 --- 0.00 30.030
10/03/2003 5:30 a 34.0 34.0 34.0 34.3 33.8 93 32.2 0.0 0.0 --- 0.00 30.030
10/03/2003 6:00 a 33.8 33.8 33.8 33.9 33.7 92 31.7 0.0 0.0 --- 0.00 30.036
10/03/2003 6:30 a 33.4 33.4 33.4 33.7 33.2 92 31.3 0.0 0.0 --- 0.00 30.050
10/03/2003 7:00 a 32.7 32.7 32.7 33.2 32.4 93 30.9 0.0 0.0 --- 0.00 30.053
10/03/2003 7:30 a 32.7 32.7 32.7 33.1 32.4 93 30.9 0.0 0.0 --- 0.00 30.056
10/03/2003 8:00 a 34.1 34.1 34.1 35.4 33.1 94 32.6 0.0 0.0 --- 0.00 30.065
10/03/2003 8:30 a 37.3 37.3 37.3 39.3 35.4 91 34.9 0.0 2.0 ESE 0.00 30.067
10/03/2003 9:00 a 41.2 41.2 41.2 43.8 39.3 81 35.8 0.0 1.0 --- 0.00 30.074
10/03/2003 9:30 a 44.5 44.5 44.5 46.5 43.7 69 35.0 0.0 1.0 N 0.00 30.077
10/03/2003 10:00 a 46.9 46.9 46.9 47.4 46.2 69 37.3 0.0 2.0 SSE 0.00 30.069
10/03/2003 10:30 a 47.7 47.7 47.7 48.4 46.9 63 35.7 0.0 1.0 SSE 0.00 30.062
10/03/2003 11:00 a 49.1 49.1 49.1 50.0 48.3 58 35.0 0.0 2.0 SSE 0.00 30.059
10/03/2003 11:30 a 50.7 50.7 50.7 51.2 50.1 53 34.2 0.0 2.0 SE 0.00 30.051
10/03/2003 12:00 p 51.1 51.1 51.1 52.2 50.8 51 33.6 0.0 3.0 WNW 0.00 30.031
10/03/2003 12:30 p 52.4 52.4 52.4 52.7 52.1 46 32.2 0.0 2.0 NW 0.00 30.021
10/03/2003 1:00 p 62.5 62.5 62.5 71.4 52.7 26 27.2 0.0 2.0 WNW 0.00 30.003
10/03/2003 1:30 p 66.2 68.7 68.7 74.1 59.4 36 40.7 0.0 2.0 SSE 0.00 29.987
10/03/2003 2:00 p 57.6 57.6 57.6 59.4 57.0 40 33.5 0.0 3.0 W 0.00 29.973
10/03/2003 2:30 p 57.4 57.4 57.4 57.8 57.1 41 33.9 0.0 4.0 WNW 0.00 29.959
10/03/2003 3:00 p 57.7 57.7 57.7 58.0 57.6 38 32.3 0.0 4.0 NNW 0.00 29.947
10/03/2003 3:30 p 57.8 57.8 57.8 57.9 57.6 40 33.7 0.0 2.0 NNW 0.00 29.937
10/03/2003 4:00 p 57.1 57.1 57.1 57.6 56.8 41 33.6 0.0 3.0 NW 0.00 29.924
10/03/2003 4:30 p 56.1 56.1 56.1 56.8 55.6 45 35.1 0.0 3.0 NNW 0.00 29.916
10/03/2003 5:00 p 55.0 55.0 55.0 55.6 54.5 44 33.5 0.0 2.0 S 0.00 29.906
10/03/2003 5:30 p 53.8 53.8 53.8 54.5 53.3 47 34.1 0.0 2.0 W 0.00 29.903
10/03/2003 6:00 p 53.0 53.0 53.0 53.4 52.1 51 35.4 0.0 2.0 S 0.00 29.900
10/03/2003 6:30 p 51.1 51.1 51.1 52.1 50.2 56 36.0 0.0 0.0 --- 0.00 29.901
10/03/2003 7:00 p 49.4 49.4 49.4 50.2 48.1 63 37.3 0.0 0.0 --- 0.00 29.907
10/03/2003 7:30 p 47.6 47.6 47.6 48.3 47.2 65 36.4 0.0 1.0 --- 0.00 29.900
10/03/2003 8:00 p 48.6 48.6 48.6 48.9 48.3 62 36.2 0.0 1.0 SSW 0.00 29.900
10/03/2003 8:30 p 48.5 48.5 48.5 48.8 48.2 64 36.9 0.0 2.0 NNW 0.00 29.906
10/03/2003 9:00 p 47.7 47.7 47.7 48.2 47.3 65 36.5 0.0 1.0 NNW 0.00 29.903
10/03/2003 9:30 p 46.7 46.7 46.7 47.3 46.0 69 37.1 0.0 0.0 --- 0.00 29.901
10/03/2003 10:00 p 45.2 45.2 45.2 45.9 44.5 72 36.7 0.0 0.0 --- 0.00 29.895
10/03/2003 10:30 p 44.1 44.1 44.1 44.5 43.6 75 36.7 0.0 0.0 --- 0.00 29.897
10/03/2003 11:00 p 43.2 43.2 43.2 43.6 43.1 79 37.1 0.0 0.0 --- 0.00 29.884
10/03/2003 11:30 p 43.3 43.3 43.3 43.4 43.1 79 37.2 0.0 0.0 --- 0.00 29.881
10/04/2003 12:00 a 42.7 42.7 42.7 43.1 42.1 83 37.9 0.0 0.0 --- 0.01 29.874
10/04/2003 12:30 a 41.7 41.7 41.7 42.2 41.3 86 37.8 0.0 0.0 --- 0.00 29.859
10/04/2003 1:00 a 41.2 41.2 41.2 41.3 40.7 87 37.6 0.0 0.0 --- 0.00 29.849
10/04/2003 1:30 a 40.5 40.5 40.5 40.8 40.3 89 37.5 0.0 0.0 --- 0.00 29.844
10/04/2003 2:00 a 39.8 39.8 39.8 40.4 39.4 91 37.4 0.0 0.0 --- 0.00 29.835
10/04/2003 2:30 a 39.2 39.2 39.2 39.4 39.0 92 37.1 0.0 0.0 --- 0.00 29.825
10/04/2003 3:00 a 39.0 39.0 39.0 39.1 38.9 92 36.9 0.0 0.0 --- 0.00 29.811
10/04/2003 3:30 a 39.0 39.0 39.0 39.0 38.9 92 36.9 0.0 0.0 --- 0.00 29.800
10/04/2003 4:00 a 38.8 38.8 38.8 39.0 38.7 93 37.0 0.0 0.0 --- 0.00 29.784
10/04/2003 4:30 a 38.7 38.7 38.7 38.8 38.5 93 36.9 0.0 0.0 --- 0.00 29.773
10/04/2003 5:00 a 38.5 38.5 38.5 38.7 38.4 93 36.7 0.0 0.0 --- 0.00 29.764
10/04/2003 5:30 a 38.4 38.4 38.4 38.7 38.1 94 36.8 0.0 0.0 --- 0.00 29.753
10/04/2003 6:00 a 38.2 38.2 38.2 38.8 38.0 94 36.6 0.0 0.0 --- 0.00 29.748
10/04/2003 6:30 a 39.1 39.1 39.1 39.4 38.7 94 37.5 0.0 0.0 --- 0.00 29.744
10/04/2003 7:00 a 39.9 39.9 39.9 40.7 39.4 95 38.6 0.0 0.0 --- 0.00 29.736
10/04/2003 7:30 a 41.6 41.6 41.6 42.3 40.7 93 39.7 0.0 0.0 --- 0.00 29.732
10/04/2003 8:00 a 43.0 43.0 43.0 43.7 42.3 93 41.1 0.0 0.0 --- 0.00 29.727
10/04/2003 8:30 a 44.7 44.7 44.7 45.6 43.7 92 42.5 0.0 0.0 --- 0.00 29.723
10/04/2003 9:00 a 47.1 47.1 47.1 49.0 45.6 88 43.7 0.0 0.0 --- 0.00 29.721
10/04/2003 9:30 a 49.9 49.9 49.9 50.4 49.0 88 46.5 0.0 0.0 --- 0.00 29.725
10/04/2003 10:00 a 51.4 51.4 51.4 52.7 50.4 84 46.7 0.0 0.0 --- 0.00 29.705
10/04/2003 10:30 a 53.9 53.9 53.9 54.5 52.7 81 48.2 0.0 2.0 SSW 0.00 29.702
10/04/2003 11:00 a 53.6 53.6 53.6 54.4 52.7 94 51.9 0.0 2.0 W 0.00 29.682
10/04/2003 11:30 a 52.5 52.5 52.5 52.9 52.3 97 51.7 0.0 2.0 S 0.00 29.658
10/04/2003 3:32 p 55.1 55.1 55.1 55.1 55.1 95 53.7 0.0 0.0 --- 19.96 29.606
10/04/2003 4:02 p 54.9 54.9 54.9 55.1 54.8 96 53.8 0.0 0.0 --- 0.00 29.613
10/04/2003 4:32 p 56.2 56.2 56.2 56.7 55.1 95 54.8 0.0 1.0 --- 0.00 29.617
10/04/2003 5:02 p 56.0 56.0 56.0 56.4 55.7 95 54.6 0.0 0.0 --- 0.00 29.632
10/04/2003 5:32 p 55.2 55.2 55.2 55.7 54.3 93 53.2 0.0 3.0 SE 0.00 29.659
10/04/2003 6:02 p 53.1 53.1 53.1 54.3 51.4 95 51.7 0.0 3.0 ESE 0.00 29.679
10/04/2003 6:32 p 50.6 50.6 50.6 51.4 49.9 97 49.8 0.0 3.0 SE 0.00 29.674
10/04/2003 7:02 p 49.6 49.6 49.6 49.9 49.4 98 49.1 0.0 0.0 --- 0.00 29.676
10/04/2003 7:32 p 49.4 49.4 49.4 49.5 49.3 98 48.9 0.0 0.0 --- 0.00 29.702
10/04/2003 8:02 p 49.3 49.3 49.3 49.4 49.2 98 48.8 0.0 0.0 --- 0.00 29.710
10/04/2003 8:32 p 49.2 49.2 49.2 49.3 49.2 99 48.9 0.0 0.0 --- 0.00 29.715
10/04/2003 9:02 p 48.6 48.6 48.6 49.2 48.2 98 48.1 0.0 0.0 --- 0.00 29.732
10/04/2003 9:32 p 48.4 48.4 48.4 49.0 48.2 99 48.1 0.0 0.0 --- 0.00 29.740
10/04/2003 10:02 p 48.3 48.3 48.3 48.7 47.7 99 48.0 0.0 0.0 --- 0.00 29.752
10/04/2003 10:32 p 47.2 47.2 47.2 47.7 46.9 98 46.7 0.0 0.0 --- 0.00 29.754
10/04/2003 11:02 p 46.5 46.5 46.5 46.9 46.2 99 46.2 0.0 0.0 --- 0.00 29.762
10/04/2003 11:32 p 46.2 46.2 46.2 46.2 46.0 98 45.7 0.0 0.0 --- 0.00 29.760
10/05/2003 12:02 a 45.4 45.4 45.4 46.0 44.9 98 44.9 0.0 0.0 --- 0.00 29.758
10/05/2003 12:32 a 44.6 44.6 44.6 44.9 44.2 98 44.1 0.0 0.0 --- 0.00 29.756
10/05/2003 1:02 a 43.8 43.8 43.8 44.2 43.4 98 43.3 0.0 0.0 --- 0.00 29.754
10/05/2003 1:32 a 43.2 43.2 43.2 43.5 42.9 98 42.7 0.0 0.0 --- 0.00 29.758
10/05/2003 2:02 a 43.1 43.1 43.1 43.2 42.9 98 42.6 0.0 0.0 --- 0.00 29.759
10/05/2003 2:32 a 42.9 42.9 42.9 43.1 42.7 98 42.4 0.0 0.0 --- 0.00 29.755
10/05/2003 3:02 a 42.4 42.4 42.4 42.8 41.9 98 41.9 0.0 0.0 --- 0.00 29.748
10/05/2003 3:32 a 41.5 41.5 41.5 41.9 41.1 98 41.0 0.0 0.0 --- 0.00 29.755
10/05/2003 4:02 a 41.1 41.1 41.1 41.3 41.0 98 40.6 0.0 0.0 --- 0.00 29.755
10/05/2003 4:32 a 41.4 41.4 41.4 41.5 41.2 98 40.9 0.0 0.0 --- 0.00 29.762
10/05/2003 5:02 a 41.3 41.3 41.3 41.5 41.2 98 40.8 0.0 0.0 --- 0.00 29.759
10/05/2003 5:32 a 41.2 41.2 41.2 41.5 40.6 98 40.7 0.0 0.0 --- 0.00 29.761
10/05/2003 6:02 a 40.1 40.1 40.1 40.6 39.7 98 39.6 0.0 0.0 --- 0.00 29.768
10/05/2003 6:32 a 39.6 39.6 39.6 39.8 39.3 98 39.1 0.0 0.0 --- 0.00 29.776
10/05/2003 7:02 a 39.1 39.1 39.1 39.3 38.9 98 38.6 0.0 0.0 --- 0.00 29.776
10/05/2003 7:32 a 38.9 38.9 38.9 39.1 38.8 98 38.4 0.0 0.0 --- 0.00 29.785
10/05/2003 8:02 a 39.8 39.8 39.8 41.1 39.1 98 39.3 0.0 0.0 --- 0.00 29.793
10/05/2003 8:32 a 42.4 42.4 42.4 43.7 41.0 98 41.9 0.0 0.0 --- 0.00 29.803
10/05/2003 9:02 a 45.0 45.0 45.0 46.3 43.7 98 44.5 0.0 0.0 --- 0.00 29.810
10/05/2003 9:32 a 47.3 47.3 47.3 48.4 46.3 99 47.0 0.0 0.0 --- 0.00 29.816
10/05/2003 10:02 a 48.5 48.5 48.5 49.0 48.4 98 48.0 0.0 1.0 --- 0.00 29.818
10/05/2003 10:32 a 50.1 50.1 50.1 50.9 49.0 98 49.6 0.0 1.0 SE 0.00 29.811
10/05/2003 11:02 a 51.6 51.6 51.6 52.8 50.9 97 50.8 0.0 2.0 ESE 0.00 29.811
10/05/2003 11:30 a 53.3 53.3 53.3 54.0 52.6 94 51.6 0.0 2.0 SSE 0.00 29.810
10/05/2003 12:00 p 53.8 53.8 53.8 54.5 53.3 91 51.2 0.0 3.0 ESE 0.00 29.812
10/05/2003 12:30 p 55.0 55.0 55.0 55.8 54.3 92 52.7 0.0 2.0 NW 0.00 29.812
10/05/2003 1:00 p 59.0 59.0 59.0 62.8 55.3 85 54.5 0.0 3.0 ESE 0.00 29.813
10/05/2003 1:30 p 60.2 60.2 60.2 65.2 56.3 82 54.7 0.0 3.0 ESE 0.00 29.805
10/05/2003 2:00 p 59.0 59.0 59.0 60.0 58.0 67 48.1 0.0 3.0 SSE 0.01 29.805
10/05/2003 2:30 p 59.5 59.5 59.5 59.9 59.3 61 46.1 0.0 3.0 SE 0.00 29.803
10/05/2003 3:00 p 60.0 60.0 60.0 60.8 59.6 59 45.6 0.0 3.0 SSE 0.00 29.810
10/05/2003 3:30 p 59.2 59.2 59.2 60.4 58.1 56 43.5 0.0 3.0 ESE 0.00 29.816
10/05/2003 4:00 p 57.5 57.5 57.5 58.4 56.4 57 42.4 0.0 3.0 ESE 0.00 29.816
10/05/2003 4:30 p 56.8 56.8 56.8 56.9 56.5 55 40.8 0.0 3.0 SSE 0.00 29.819
10/05/2003 5:00 p 56.6 56.6 56.6 57.5 55.4 57 41.6 0.0 2.0 SSE 0.00 29.827
10/05/2003 5:30 p 54.7 54.7 54.7 55.4 54.3 56 39.3 0.0 1.0 SE 0.00 29.837
10/05/2003 6:00 p 54.2 54.2 54.2 54.6 53.4 59 40.2 0.0 1.0 ESE 0.00 29.848
10/05/2003 6:30 p 51.9 51.9 51.9 53.4 50.7 64 40.1 0.0 0.0 --- 0.00 29.854
10/05/2003 7:00 p 49.4 49.4 49.4 50.7 48.0 75 41.8 0.0 0.0 --- 0.00 29.862
10/05/2003 7:30 p 46.7 46.7 46.7 48.0 45.4 84 42.1 0.0 0.0 --- 0.00 29.871
10/05/2003 8:00 p 44.5 44.5 44.5 45.4 43.7 86 40.6 0.0 0.0 --- 0.00 29.881
10/05/2003 8:30 p 43.3 43.3 43.3 43.7 42.7 89 40.3 0.0 0.0 --- 0.00 29.894
10/05/2003 9:00 p 42.1 42.1 42.1 42.7 41.8 92 39.9 0.0 0.0 --- 0.00 29.901
10/05/2003 9:30 p 41.4 41.4 41.4 41.7 41.1 93 39.5 0.0 0.0 --- 0.00 29.912
10/05/2003 10:00 p 40.8 40.8 40.8 41.1 40.3 94 39.2 0.0 0.0 --- 0.00 29.925
10/05/2003 10:30 p 39.9 39.9 39.9 40.3 39.5 94 38.3 0.0 0.0 --- 0.00 29.923
10/05/2003 11:00 p 39.5 39.5 39.5 39.6 39.3 95 38.2 0.0 0.0 --- 0.00 29.921
10/05/2003 11:30 p 38.9 38.9 38.9 39.3 38.5 94 37.3 0.0 0.0 --- 0.00 29.924
10/06/2003 12:00 a 38.4 38.4 38.4 38.5 38.2 94 36.8 0.0 0.0 --- 0.00 29.915
10/06/2003 12:30 a 37.9 37.9 37.9 38.2 37.8 95 36.6 0.0 0.0 --- 0.00 29.916
10/06/2003 1:00 a 37.5 37.5 37.5 37.8 37.2 95 36.2 0.0 0.0 --- 0.00 29.918
10/06/2003 1:30 a 36.9 36.9 36.9 37.2 36.7 95 35.6 0.0 0.0 --- 0.00 29.924
10/06/2003 2:00 a 36.4 36.4 36.4 36.7 36.2 95 35.1 0.0 0.0 --- 0.00 29.923
10/06/2003 2:30 a 36.2 36.2 36.2 36.4 35.7 94 34.6 0.0 0.0 --- 0.00 29.923
10/06/2003 3:00 a 35.5 35.5 35.5 35.7 35.3 94 33.9 0.0 0.0 --- 0.00 29.923
10/06/2003 3:30 a 35.2 35.2 35.2 35.3 35.1 95 33.9 0.0 0.0 --- 0.00 29.922
10/06/2003 4:00 a 34.9 34.9 34.9 35.1 34.8 95 33.6 0.0 0.0 --- 0.00 29.928
10/06/2003 4:30 a 34.5 34.5 34.5 34.9 34.1 94 33.0 0.0 0.0 --- 0.00 29.929
10/06/2003 5:00 a 34.1 34.1 34.1 34.2 34.0 95 32.8 0.0 0.0 --- 0.00 29.935
10/06/2003 5:30 a 33.9 33.9 33.9 34.1 33.7 94 32.4 0.0 0.0 --- 0.00 29.944
10/06/2003 6:00 a 33.6 33.6 33.6 33.8 33.4 94 32.1 0.0 0.0 --- 0.00 29.951
10/06/2003 6:30 a 33.2 33.2 33.2 33.4 33.1 94 31.7 0.0 0.0 --- 0.00 29.959
10/06/2003 7:00 a 33.1 33.1 33.1 33.2 33.0 95 31.8 0.0 0.0 --- 0.00 29.960
10/06/2003 7:30 a 33.3 33.3 33.3 33.6 33.1 95 32.0 0.0 0.0 --- 0.00 29.967
10/06/2003 8:00 a 34.4 34.4 34.4 35.4 33.6 95 33.1 0.0 0.0 --- 0.00 29.974
10/06/2003 8:30 a 37.3 37.3 37.3 39.8 35.4 96 36.3 0.0 0.0 --- 0.00 29.987
10/06/2003 9:00 a 42.1 42.1 42.1 44.3 39.8 94 40.5 0.0 0.0 --- 0.00 29.991
10/06/2003 9:30 a 46.6 46.6 46.6 48.2 44.3 80 40.8 0.0 2.0 ESE 0.00 29.991
10/06/2003 10:00 a 49.4 49.4 49.4 50.0 48.3 68 39.3 0.0 1.0 ESE 0.00 29.994
10/06/2003 10:30 a 50.4 50.4 50.4 51.7 49.5 64 38.7 0.0 2.0 ESE 0.00 29.998
10/06/2003 11:00 a 52.6 52.6 52.6 53.4 51.7 60 39.1 0.0 2.0 ESE 0.00 29.998
10/06/2003 11:30 a 53.7 53.7 53.7 54.4 53.4 59 39.7 0.0 2.0 ESE 0.00 29.988
10/06/2003 12:00 p 55.2 55.2 55.2 56.0 54.4 52 37.9 0.0 2.0 ESE 0.00 29.981
10/06/2003 12:30 p 55.7 55.7 55.7 56.0 55.4 50 37.4 0.0 2.0 SE 0.00 29.973
10/06/2003 1:00 p 64.4 64.4 64.4 71.5 55.8 29 31.5 0.0 3.0 ESE 0.00 29.961
10/06/2003 1:30 p 66.8 66.8 66.8 72.2 59.8 41 42.4 0.0 4.0 SE 0.00 29.950
10/06/2003 2:00 p 59.6 59.6 59.6 60.6 58.4 44 37.7 0.0 3.0 SE 0.00 29.942
10/06/2003 2:30 p 59.5 59.5 59.5 60.2 58.4 40 35.2 0.0 3.0 ESE 0.00 29.932
10/06/2003 3:00 p 59.6 59.6 59.6 60.7 58.7 39 34.6 0.0 5.0 ESE 0.00 29.934
10/06/2003 3:30 p 59.1 59.1 59.1 60.6 57.5 43 36.6 0.0 4.0 ESE 0.00 29.927
10/06/2003 4:00 p 58.7 58.7 58.7 59.3 57.8 41 35.1 0.0 1.0 E 0.00 29.920
10/06/2003 4:30 p 58.9 58.9 58.9 59.3 58.6 41 35.3 0.0 1.0 SSE 0.00 29.921
10/06/2003 5:00 p 58.3 58.3 58.3 58.7 57.7 43 35.9 0.0 1.0 SSE 0.00 29.926
10/06/2003 5:30 p 56.8 56.8 56.8 57.7 56.2 45 35.7 0.0 1.0 SSE 0.00 29.930
10/06/2003 6:00 p 55.3 55.3 55.3 56.3 53.6 54 39.0 0.0 0.0 --- 0.00 29.936
10/06/2003 6:30 p 51.9 51.9 51.9 53.6 50.3 63 39.7 0.0 0.0 --- 0.00 29.943
10/06/2003 7:00 p 48.9 48.9 48.9 50.3 47.6 73 40.6 0.0 0.0 --- 0.00 29.952
10/06/2003 7:30 p 46.8 46.8 46.8 47.6 46.0 79 40.6 0.0 0.0 --- 0.00 29.958
10/06/2003 8:00 p 45.0 45.0 45.0 46.0 44.2 85 40.8 0.0 0.0 --- 0.00 29.968
10/06/2003 8:30 p 43.7 43.7 43.7 44.2 43.0 88 40.4 0.0 0.0 --- 0.00 29.980
10/06/2003 9:00 p 42.4 42.4 42.4 43.0 41.9 90 39.7 0.0 0.0 --- 0.00 29.981
10/06/2003 9:30 p 41.5 41.5 41.5 41.9 41.1 92 39.4 0.0 0.0 --- 0.00 29.989
10/06/2003 10:00 p 40.8 40.8 40.8 41.1 40.5 92 38.7 0.0 0.0 --- 0.00 29.997
10/06/2003 10:30 p 40.2 40.2 40.2 40.5 39.9 93 38.3 0.0 0.0 --- 0.00 30.002
10/06/2003 11:00 p 39.5 39.5 39.5 39.9 39.1 93 37.6 0.0 0.0 --- 0.00 30.007
10/06/2003 11:30 p 38.8 38.8 38.8 39.1 38.6 94 37.2 0.0 0.0 --- 0.00 30.000
10/07/2003 12:00 a 38.4 38.4 38.4 38.7 38.0 93 36.6 0.0 0.0 --- 0.00 30.006
10/07/2003 12:30 a 37.8 37.8 37.8 38.0 37.7 94 36.2 0.0 0.0 --- 0.00 30.007
10/07/2003 1:00 a 37.4 37.4 37.4 37.7 37.0 94 35.8 0.0 0.0 --- 0.00 30.014
10/07/2003 1:30 a 36.9 36.9 36.9 37.0 36.9 94 35.3 0.0 0.0 --- 0.00 30.013
10/07/2003 2:00 a 36.7 36.7 36.7 36.9 36.4 94 35.1 0.0 0.0 --- 0.00 30.016
10/07/2003 2:30 a 36.2 36.2 36.2 36.5 35.9 94 34.6 0.0 0.0 --- 0.00 30.017
10/07/2003 3:00 a 35.8 35.8 35.8 35.9 35.6 94 34.2 0.0 0.0 --- 0.00 30.014
10/07/2003 3:30 a 35.2 35.2 35.2 35.6 35.1 94 33.7 0.0 0.0 --- 0.00 30.012
10/07/2003 4:00 a 34.8 34.8 34.8 35.1 34.6 94 33.3 0.0 0.0 --- 0.00 30.015
10/07/2003 4:30 a 34.6 34.6 34.6 34.8 34.3 94 33.1 0.0 0.0 --- 0.00 30.023
10/07/2003 5:00 a 34.2 34.2 34.2 34.3 34.0 94 32.7 0.0 0.0 --- 0.00 30.032
10/07/2003 5:30 a 34.1 34.1 34.1 34.1 33.9 94 32.6 0.0 0.0 --- 0.00 30.037
10/07/2003 6:00 a 33.9 33.9 33.9 33.9 33.6 94 32.4 0.0 0.0 --- 0.00 30.044
10/07/2003 6:30 a 33.5 33.5 33.5 33.7 33.3 94 32.0 0.0 0.0 --- 0.00 30.050
10/07/2003 7:00 a 33.3 33.3 33.3 33.4 33.1 94 31.8 0.0 0.0 --- 0.00 30.054
10/07/2003 7:30 a 33.2 33.2 33.2 33.6 33.0 95 31.9 0.0 0.0 --- 0.00 30.061
10/07/2003 8:00 a 34.5 34.5 34.5 35.7 33.6 95 33.2 0.0 0.0 --- 0.00 30.068
10/07/2003 8:30 a 37.6 37.6 37.6 39.5 35.7 95 36.3 0.0 0.0 --- 0.00 30.076
10/07/2003 9:00 a 41.4 41.4 41.4 43.6 39.5 93 39.5 0.0 0.0 --- 0.00 30.083
10/07/2003 9:30 a 45.6 45.6 45.6 47.3 43.6 88 42.3 0.0 0.0 --- 0.00 30.086
10/07/2003 10:00 a 49.2 49.2 49.2 50.4 47.3 81 43.6 0.0 0.0 --- 0.00 30.088
10/07/2003 10:30 a 51.7 51.7 51.7 52.9 50.4 66 40.7 0.0 2.0 SSE 0.00 30.091
10/07/2003 11:00 a 54.9 54.9 54.9 56.5 52.9 58 40.4 0.0 2.0 SSE 0.00 30.088
10/07/2003 11:30 a 57.0 57.0 57.0 57.5 56.5 55 41.0 0.0 1.0 NE 0.00 30.080
10/07/2003 12:00 p 58.2 58.2 58.2 58.8 57.5 49 39.2 0.0 2.0 N 0.00 30.073
10/07/2003 12:30 p 59.6 59.6 59.6 60.2 58.8 46 38.8 0.0 3.0 NNW 0.00 30.064
10/07/2003 1:00 p 67.0 70.5 70.5 77.2 60.2 27 34.9 0.0 2.0 SSW 0.00 30.053
10/07/2003 1:30 p 72.0 73.8 73.8 78.1 66.2 40 48.0 0.0 2.0 ESE 0.00 30.038
10/07/2003 2:00 p 64.7 64.7 64.7 66.1 64.2 43 41.7 0.0 2.0 ESE 0.00 30.028
10/07/2003 2:30 p 65.0 65.0 65.0 65.3 64.6 44 42.6 0.0 1.0 SSE 0.00 30.010
10/07/2003 3:00 p 65.1 65.1 65.1 65.3 65.0 46 43.8 0.0 2.0 SE 0.00 30.010
10/07/2003 3:30 p 64.7 64.7 64.7 65.2 64.4 49 45.1 0.0 3.0 NW 0.00 30.009
10/07/2003 4:00 p 64.2 64.2 64.2 64.6 63.6 50 45.2 0.0 3.0 WNW 0.00 30.001
10/07/2003 4:30 p 63.0 63.0 63.0 63.6 62.5 51 44.6 0.0 2.0 W 0.00 29.994
10/07/2003 5:00 p 61.7 61.7 61.7 62.5 61.0 58 46.8 0.0 2.0 WNW 0.00 29.997
10/07/2003 5:30 p 60.4 60.4 60.4 61.0 59.8 62 47.3 0.0 2.0 SSW 0.00 30.000
10/07/2003 6:00 p 58.8 58.8 58.8 59.8 57.7 66 47.5 0.0 2.0 SSE 0.00 29.999
10/07/2003 6:30 p 56.5 56.5 56.5 57.7 55.2 74 48.3 0.0 0.0 --- 0.00 29.999
10/07/2003 7:00 p 53.9 53.9 53.9 55.2 52.8 80 47.9 0.0 0.0 --- 0.00 30.003
10/07/2003 7:30 p 51.9 51.9 51.9 52.8 51.2 84 47.2 0.0 0.0 --- 0.00 30.007
10/07/2003 8:00 p 50.4 50.4 50.4 51.2 49.8 88 47.0 0.0 0.0 --- 0.00 30.014
10/07/2003 8:30 p 49.5 49.5 49.5 49.8 49.1 91 47.0 0.0 1.0 --- 0.00 30.021
10/07/2003 9:00 p 48.7 48.7 48.7 49.1 48.4 92 46.5 0.0 0.0 --- 0.00 30.021
10/07/2003 9:30 p 47.8 47.8 47.8 48.4 47.5 93 45.9 0.0 0.0 --- 0.00 30.029
10/07/2003 10:00 p 47.3 47.3 47.3 47.5 47.1 94 45.7 0.0 0.0 --- 0.00 30.034
10/07/2003 10:30 p 46.8 46.8 46.8 47.2 46.4 94 45.2 0.0 0.0 --- 0.00 30.039
10/07/2003 11:00 p 46.1 46.1 46.1 46.4 46.0 94 44.5 0.0 0.0 --- 0.00 30.047
10/07/2003 11:30 p 46.1 46.1 46.1 46.2 46.0 94 44.5 0.0 0.0 --- 0.00 30.056
10/08/2003 12:00 a 46.3 46.3 46.3 46.4 46.2 95 44.9 0.0 0.0 --- 0.00 30.054
10/08/2003 12:30 a 45.9 45.9 45.9 46.2 45.6 95 44.6 0.0 0.0 --- 0.00 30.055
10/08/2003 1:00 a 45.5 45.5 45.5 45.6 45.4 96 44.4 0.0 0.0 --- 0.00 30.054
10/08/2003 1:30 a 45.5 45.5 45.5 45.7 45.2 95 44.2 0.0 0.0 --- 0.00 30.055
10/08/2003 2:00 a 45.0 45.0 45.0 45.2 44.8 95 43.7 0.0 0.0 --- 0.00 30.058
10/08/2003 2:30 a 44.6 44.6 44.6 44.8 44.4 95 43.3 0.0 0.0 --- 0.00 30.057
10/08/2003 3:00 a 44.2 44.2 44.2 44.4 44.0 95 42.9 0.0 0.0 --- 0.00 30.049
10/08/2003 3:30 a 43.9 43.9 43.9 44.1 43.8 96 42.8 0.0 0.0 --- 0.00 30.050
10/08/2003 4:00 a 43.7 43.7 43.7 43.9 43.5 96 42.6 0.0 0.0 --- 0.00 30.055
10/08/2003 4:30 a 43.4 43.4 43.4 43.6 43.1 96 42.3 0.0 0.0 --- 0.00 30.060
10/08/2003 5:00 a 43.0 43.0 43.0 43.1 42.9 96 41.9 0.0 0.0 --- 0.00 30.063
10/08/2003 5:30 a 43.6 43.6 43.6 44.2 42.9 96 42.5 0.0 0.0 --- 0.00 30.065
10/08/2003 6:00 a 44.1 44.1 44.1 44.3 43.9 95 42.8 0.0 0.0 --- 0.00 30.073
10/08/2003 6:30 a 43.6 43.6 43.6 43.9 43.5 96 42.5 0.0 0.0 --- 0.00 30.075
10/08/2003 7:00 a 43.2 43.2 43.2 43.5 43.0 96 42.1 0.0 0.0 --- 0.00 30.079
10/08/2003 7:30 a 43.2 43.2 43.2 43.6 43.0 96 42.1 0.0 0.0 --- 0.00 30.081
10/08/2003 8:00 a 45.1 45.1 45.1 46.5 43.6 97 44.3 0.0 0.0 --- 0.00 30.086
10/08/2003 8:30 a 48.1 48.1 48.1 49.5 46.5 96 47.0 0.0 0.0 --- 0.00 30.092
10/08/2003 9:00 a 50.8 50.8 50.8 52.1 49.5 92 48.6 0.0 0.0 --- 0.00 30.097
10/08/2003 9:30 a 53.2 53.2 53.2 54.8 52.1 90 50.3 0.0 0.0 --- 0.00 30.103
10/08/2003 10:00 a 56.6 56.6 56.6 58.8 54.8 86 52.5 0.0 0.0 --- 0.00 30.103
10/08/2003 10:30 a 59.9 59.9 59.9 60.6 58.8 83 54.7 0.0 0.0 --- 0.00 30.107
10/08/2003 11:00 a 61.1 61.1 61.1 61.4 60.5 83 55.9 0.0 1.0 SSE 0.00 30.106
10/08/2003 11:30 a 62.1 62.1 62.1 62.9 61.3 81 56.2 0.0 2.0 ESE 0.00 30.104
10/08/2003 12:00 p 64.0 64.0 64.0 64.8 62.9 78 57.0 0.0 1.0 --- 0.00 30.096
10/08/2003 12:30 p 66.0 66.0 66.0 67.2 64.8 75 57.9 0.0 1.0 N 0.01 30.084
10/08/2003 1:00 p 69.6 69.9 69.9 75.7 67.2 58 54.5 0.0 1.0 N 0.00 30.070
10/08/2003 1:30 p 76.6 74.8 74.8 78.0 70.5 68 63.5 0.0 2.0 WSW 0.00 30.050
10/08/2003 2:00 p 70.2 69.9 69.9 70.4 69.6 71 60.1 0.0 1.0 W 0.00 30.037
10/08/2003 2:30 p 71.0 70.6 70.6 71.0 70.2 68 59.5 0.0 2.0 S 0.00 30.027
10/08/2003 3:00 p 71.0 71.1 71.1 71.2 70.8 67 59.6 0.0 2.0 --- 0.00 30.020
10/08/2003 3:30 p 71.0 70.7 70.7 71.0 70.2 66 58.8 0.0 1.0 SSE 0.00 30.017
10/08/2003 4:00 p 70.0 70.2 70.2 71.0 69.7 69 59.6 0.0 1.0 --- 0.00 30.013
10/08/2003 4:30 p 70.2 69.5 69.5 69.8 69.0 71 59.7 0.0 1.0 --- 0.00 30.008
10/08/2003 5:00 p 68.6 68.4 68.4 69.0 67.9 73 59.4 0.0 0.0 --- 0.00 30.008
10/08/2003 5:30 p 67.3 67.3 67.3 67.9 66.6 70 57.2 0.0 1.0 --- 0.00 30.006
10/08/2003 6:00 p 65.2 65.2 65.2 66.6 63.9 77 57.8 0.0 0.0 --- 0.00 30.009
10/08/2003 6:30 p 62.7 62.7 62.7 63.8 61.6 81 56.8 0.0 0.0 --- 0.00 30.007
10/08/2003 7:00 p 60.3 60.3 60.3 61.6 59.3 84 55.5 0.0 0.0 --- 0.00 30.013
10/08/2003 7:30 p 58.4 58.4 58.4 59.4 57.3 88 54.9 0.0 0.0 --- 0.00 30.015
10/08/2003 8:00 p 56.7 56.7 56.7 57.3 56.3 91 54.1 0.0 0.0 --- 0.00 30.016
10/08/2003 8:30 p 55.6 55.6 55.6 56.3 55.0 93 53.6 0.0 0.0 --- 0.00 30.018
10/08/2003 9:00 p 54.5 54.5 54.5 55.0 54.2 94 52.8 0.0 0.0 --- 0.00 30.019
10/08/2003 9:30 p 53.8 53.8 53.8 54.2 53.4 94 52.1 0.0 0.0 --- 0.00 30.025
10/08/2003 10:00 p 53.3 53.3 53.3 53.4 53.2 95 51.9 0.0 0.0 --- 0.00 30.028
10/08/2003 10:30 p 52.9 52.9 52.9 53.3 52.5 95 51.5 0.0 0.0 --- 0.00 30.038
10/08/2003 11:00 p 52.6 52.6 52.6 52.6 52.5 96 51.5 0.0 0.0 --- 0.00 30.038
10/08/2003 11:30 p 52.4 52.4 52.4 52.6 52.3 96 51.3 0.0 0.0 --- 0.00 30.034
10/09/2003 12:00 a 52.1 52.1 52.1 52.3 52.0 96 51.0 0.0 0.0 --- 0.00 30.034
10/09/2003 12:30 a 51.8 51.8 51.8 52.0 51.7 96 50.7 0.0 0.0 --- 0.00 30.029
10/09/2003 1:00 a 51.5 51.5 51.5 51.7 51.5 96 50.4 0.0 0.0 --- 0.00 30.029
10/09/2003 1:30 a 51.5 51.5 51.5 51.7 51.4 96 50.4 0.0 0.0 --- 0.00 30.024
10/09/2003 2:00 a 51.4 51.4 51.4 51.4 51.3 96 50.3 0.0 0.0 --- 0.00 30.029
10/09/2003 2:30 a 51.1 51.1 51.1 51.3 50.8 96 50.0 0.0 0.0 --- 0.00 30.032
10/09/2003 3:00 a 50.7 50.7 50.7 50.8 50.6 97 49.9 0.0 0.0 --- 0.00 30.028
10/09/2003 3:30 a 50.4 50.4 50.4 50.7 50.2 97 49.6 0.0 0.0 --- 0.00 30.024
10/09/2003 4:00 a 50.0 50.0 50.0 50.2 49.9 97 49.2 0.0 0.0 --- 0.00 30.028
10/09/2003 4:30 a 50.1 50.1 50.1 50.2 49.9 97 49.3 0.0 0.0 --- 0.00 30.031
10/09/2003 5:00 a 50.3 50.3 50.3 50.3 50.1 97 49.5 0.0 0.0 --- 0.00 30.029
10/09/2003 5:30 a 50.0 50.0 50.0 50.1 49.8 97 49.2 0.0 0.0 --- 0.00 30.040
10/09/2003 6:00 a 49.6 49.6 49.6 49.8 49.5 97 48.8 0.0 0.0 --- 0.00 30.032
10/09/2003 6:30 a 49.3 49.3 49.3 49.6 49.1 97 48.5 0.0 0.0 --- 0.00 30.029
10/09/2003 7:00 a 49.3 49.3 49.3 49.4 49.1 97 48.5 0.0 0.0 --- 0.00 30.031
10/09/2003 7:30 a 49.4 49.4 49.4 49.5 49.3 97 48.6 0.0 0.0 --- 0.00 30.044
10/09/2003 8:00 a 49.8 49.8 49.8 50.3 49.5 97 49.0 0.0 0.0 --- 0.00 30.053
10/09/2003 8:30 a 51.1 51.1 51.1 52.2 50.3 97 50.3 0.0 0.0 --- 0.00 30.055
10/09/2003 9:00 a 53.2 53.2 53.2 54.1 52.2 97 52.4 0.0 0.0 --- 0.00 30.064
10/09/2003 9:30 a 55.7 55.7 55.7 57.7 54.2 96 54.6 0.0 0.0 --- 0.00 30.062
10/09/2003 10:00 a 59.7 59.7 59.7 60.7 57.7 91 57.1 0.0 0.0 --- 0.00 30.067
10/09/2003 10:30 a 62.1 62.1 62.1 63.5 60.7 83 56.9 0.0 1.0 SE 0.00 30.062
10/09/2003 11:00 a 65.5 65.5 65.5 67.5 63.5 73 56.6 0.0 0.0 --- 0.00 30.063
10/09/2003 11:30 a 69.0 68.7 68.7 69.3 67.5 69 58.1 0.0 0.0 --- 0.00 30.067
10/09/2003 12:00 p 70.0 69.6 69.6 70.3 69.3 67 58.2 0.0 1.0 SE 0.00 30.064
10/09/2003 12:30 p 72.0 71.6 71.6 72.5 70.3 66 59.7 0.0 1.0 E 0.00 30.059
10/09/2003 1:00 p 80.0 79.9 79.9 86.5 72.5 42 54.8 0.0 0.0 --- 0.00 30.048
10/09/2003 1:30 p 86.3 83.6 83.6 88.5 77.2 53 64.7 0.0 255.0 E 0.00 30.037
10/09/2003 2:00 p 76.0 75.9 75.9 77.2 75.3 60 61.0 0.0 1.0 E 0.00 30.027
10/09/2003 2:30 p 76.0 75.6 75.6 76.1 75.5 57 59.3 0.0 0.0 --- 0.00 30.018
10/09/2003 3:00 p 77.0 76.5 76.5 76.7 76.0 56 59.7 0.0 0.0 --- 0.00 30.012
10/09/2003 3:30 p 75.8 75.0 75.0 76.0 74.6 64 62.0 0.0 0.0 --- 0.00 30.010
10/09/2003 4:00 p 75.4 74.1 74.1 74.7 73.6 67 62.5 0.0 0.0 --- 0.00 30.008
10/09/2003 4:30 p 73.7 73.3 73.3 73.6 72.6 67 61.7 0.0 0.0 --- 0.00 29.999
10/09/2003 5:00 p 72.0 71.9 71.9 72.6 71.4 67 60.4 0.0 0.0 --- 0.00 30.006
10/09/2003 5:30 p 70.6 70.2 70.2 71.4 68.6 73 61.1 0.0 0.0 --- 0.00 30.009
10/09/2003 6:00 p 67.4 67.4 67.4 68.6 66.4 81 61.4 0.0 0.0 --- 0.00 30.011
10/09/2003 6:30 p 65.4 65.4 65.4 66.4 64.5 86 61.1 0.0 0.0 --- 0.00 30.012
10/09/2003 7:00 p 63.9 63.9 63.9 64.5 63.4 85 59.3 0.0 0.0 --- 0.00 30.014
10/09/2003 7:30 p 62.9 62.9 62.9 63.4 62.3 88 59.3 0.0 0.0 --- 0.00 30.023
10/09/2003 8:00 p 61.6 61.6 61.6 62.3 60.6 91 59.0 0.0 0.0 --- 0.00 30.024
10/09/2003 8:30 p 59.8 59.8 59.8 60.6 59.2 94 58.1 0.0 0.0 --- 0.00 30.026
10/09/2003 9:00 p 58.8 58.8 58.8 59.2 58.3 94 57.1 0.0 0.0 --- 0.00 30.027
10/09/2003 9:30 p 58.0 58.0 58.0 58.3 57.7 95 56.6 0.0 0.0 --- 0.00 30.031
10/09/2003 10:00 p 57.1 57.1 57.1 57.7 56.5 95 55.7 0.0 0.0 --- 0.00 30.035
10/09/2003 10:30 p 56.3 56.3 56.3 56.5 56.3 96 55.2 0.0 0.0 --- 0.00 30.032
10/09/2003 11:00 p 56.1 56.1 56.1 56.3 56.0 96 55.0 0.0 0.0 --- 0.00 30.032
10/09/2003 11:30 p 55.5 55.5 55.5 56.0 55.2 96 54.4 0.0 0.0 --- 0.00 30.032
10/10/2003 12:00 a 55.0 55.0 55.0 55.2 54.9 97 54.2 0.0 0.0 --- 0.00 30.030
10/10/2003 12:30 a 54.5 54.5 54.5 54.9 54.1 96 53.4 0.0 0.0 --- 0.00 30.032
10/10/2003 1:00 a 54.0 54.0 54.0 54.1 53.9 97 53.2 0.0 0.0 --- 0.00 30.029
10/10/2003 1:30 a 53.7 53.7 53.7 54.1 53.2 96 52.6 0.0 0.0 --- 0.00 30.031
10/10/2003 2:00 a 53.0 53.0 53.0 53.2 52.8 97 52.2 0.0 0.0 --- 0.00 30.030
10/10/2003 2:30 a 52.8 52.8 52.8 52.9 52.8 97 52.0 0.0 0.0 --- 0.00 30.024
10/10/2003 3:00 a 52.6 52.6 52.6 52.8 52.5 97 51.8 0.0 0.0 --- 0.00 30.011
10/10/2003 3:30 a 52.7 52.7 52.7 52.8 52.6 97 51.9 0.0 0.0 --- 0.00 30.012
10/10/2003 4:00 a 52.6 52.6 52.6 52.7 52.5 97 51.8 0.0 0.0 --- 0.00 30.002
10/10/2003 4:30 a 52.6 52.6 52.6 52.7 52.5 97 51.8 0.0 0.0 --- 0.00 30.012
10/10/2003 5:00 a 53.1 53.1 53.1 54.2 52.7 97 52.3 0.0 0.0 --- 0.00 30.023
10/10/2003 5:30 a 55.8 55.8 55.8 56.9 54.2 98 55.2 0.0 0.0 --- 0.00 30.029
10/10/2003 6:00 a 57.2 57.2 57.2 57.5 56.9 98 56.6 0.0 0.0 --- 0.00 30.029
10/10/2003 6:30 a 57.8 57.8 57.8 58.0 57.5 98 57.2 0.0 0.0 --- 0.00 30.035
10/10/2003 7:00 a 58.0 58.0 58.0 58.1 58.0 98 57.4 0.0 0.0 --- 0.00 30.045
10/10/2003 7:30 a 58.1 58.1 58.1 58.2 58.0 98 57.5 0.0 0.0 --- 0.00 30.048
10/10/2003 8:00 a 58.4 58.4 58.4 58.7 58.1 98 57.8 0.0 0.0 --- 0.00 30.060
10/10/2003 8:30 a 58.8 58.8 58.8 59.1 58.7 98 58.2 0.0 0.0 --- 0.00 30.061
10/10/2003 9:00 a 59.8 59.8 59.8 60.3 59.1 98 59.2 0.0 0.0 --- 0.00 30.059
10/10/2003 9:30 a 60.7 60.7 60.7 61.0 60.3 94 59.0 0.0 0.0 --- 0.00 30.062
10/10/2003 10:00 a 61.7 61.7 61.7 62.4 61.0 88 58.1 0.0 0.0 --- 0.00 30.063
10/10/2003 10:30 a 63.0 63.0 63.0 63.5 62.4 85 58.4 0.0 0.0 --- 0.00 30.068
10/10/2003 11:00 a 63.8 63.8 63.8 64.1 63.5 82 58.2 0.0 0.0 --- 0.00 30.066
10/10/2003 11:30 a 64.2 64.2 64.2 64.9 63.8 81 58.3 0.0 0.0 --- 0.00 30.071
10/10/2003 12:00 p 64.8 64.8 64.8 65.0 64.6 80 58.5 0.0 0.0 --- 0.00 30.067
10/10/2003 12:30 p 64.3 64.3 64.3 64.6 63.7 81 58.4 0.0 0.0 --- 0.00 30.063
10/10/2003 1:00 p 63.8 63.8 63.8 64.1 63.5 80 57.5 0.0 0.0 --- 0.00 30.058
10/10/2003 1:30 p 64.3 64.3 64.3 64.5 63.9 81 58.4 0.0 0.0 --- 0.00 30.045
10/10/2003 2:00 p 63.9 63.9 63.9 64.1 63.7 81 58.0 0.0 0.0 --- 0.00 30.039
10/10/2003 2:30 p 64.0 64.0 64.0 64.9 63.2 79 57.4 0.0 0.0 --- 0.00 30.034
10/10/2003 3:00 p 65.2 65.2 65.2 66.2 64.6 76 57.5 0.0 0.0 --- 0.00 30.022
10/10/2003 3:30 p 65.9 65.9 65.9 66.3 65.2 77 58.5 0.0 0.0 --- 0.00 30.025
10/10/2003 4:00 p 64.6 64.6 64.6 65.2 64.0 79 57.9 0.0 0.0 --- 0.00 30.023
10/10/2003 4:30 p 63.5 63.5 63.5 64.0 63.3 79 56.9 0.0 0.0 --- 0.00 30.018
10/10/2003 5:00 p 63.1 63.1 63.1 63.3 62.9 80 56.8 0.0 0.0 --- 0.00 30.014
10/10/2003 5:30 p 62.1 62.1 62.1 62.9 60.9 84 57.2 0.0 0.0 --- 0.00 30.008
10/10/2003 6:00 p 61.1 61.1 61.1 61.2 60.9 83 55.9 0.0 0.0 --- 0.00 30.012
10/10/2003 6:30 p 61.0 61.0 61.0 61.1 60.9 84 56.1 0.0 0.0 --- 0.00 30.011
10/10/2003 7:00 p 60.7 60.7 60.7 60.9 60.7 83 55.5 0.0 0.0 --- 0.00 30.011
10/10/2003 7:30 p 60.8 60.8 60.8 60.8 60.7 84 55.9 0.0 0.0 --- 0.00 30.005
10/10/2003 8:00 p 60.7 60.7 60.7 60.7 60.6 84 55.8 0.0 0.0 --- 0.00 30.012
10/10/2003 8:30 p 60.4 60.4 60.4 60.6 60.3 85 55.9 0.0 0.0 --- 0.00 30.005
10/10/2003 9:00 p 60.1 60.1 60.1 60.3 59.6 86 55.9 0.0 0.0 --- 0.00 30.006
10/10/2003 9:30 p 58.5 58.5 58.5 59.6 57.7 90 55.6 0.0 0.0 --- 0.00 30.003
10/10/2003 10:00 p 57.4 57.4 57.4 57.7 56.8 92 55.1 0.0 0.0 --- 0.00 29.997
10/10/2003 10:30 p 56.4 56.4 56.4 56.8 56.1 94 54.7 0.0 0.0 --- 0.00 30.003
10/10/2003 11:00 p 55.9 55.9 55.9 56.1 55.6 94 54.2 0.0 0.0 --- 0.00 30.006
10/10/2003 11:30 p 55.4 55.4 55.4 55.6 55.2 94 53.7 0.0 0.0 --- 0.00 29.996
10/11/2003 12:00 a 54.9 54.9 54.9 55.2 54.5 95 53.5 0.0 0.0 --- 0.00 29.996
10/11/2003 12:30 a 54.1 54.1 54.1 54.6 53.6 95 52.7 0.0 0.0 --- 0.00 29.999
10/11/2003 1:00 a 53.5 53.5 53.5 53.7 53.3 96 52.4 0.0 0.0 --- 0.00 29.997
10/11/2003 1:30 a 53.9 53.9 53.9 54.1 53.7 96 52.8 0.0 0.0 --- 0.00 30.001
10/11/2003 2:00 a 53.9 53.9 53.9 54.1 53.7 95 52.5 0.0 0.0 --- 0.00 30.006
10/11/2003 2:30 a 53.4 53.4 53.4 53.7 53.1 95 52.0 0.0 0.0 --- 0.00 29.992
10/11/2003 3:00 a 52.8 52.8 52.8 53.1 52.4 94 51.1 0.0 0.0 --- 0.00 29.991
10/11/2003 3:30 a 51.9 51.9 51.9 52.4 51.3 95 50.5 0.0 0.0 --- 0.00 29.986
10/11/2003 4:00 a 50.7 50.7 50.7 51.3 50.5 95 49.3 0.0 0.0 --- 0.00 29.975
10/11/2003 4:30 a 50.8 50.8 50.8 51.5 50.5 92 48.6 0.0 0.0 --- 0.00 29.967
10/11/2003 5:00 a 52.0 52.0 52.0 52.5 51.5 88 48.6 0.0 0.0 --- 0.00 29.973
10/11/2003 5:30 a 52.8 52.8 52.8 53.1 52.5 87 49.0 0.0 0.0 --- 0.00 29.976
10/11/2003 6:00 a 53.3 53.3 53.3 53.4 53.1 86 49.2 0.0 0.0 --- 0.00 29.983
10/11/2003 6:30 a 53.3 53.3 53.3 53.4 53.2 85 48.9 0.0 0.0 --- 0.00 29.982
10/11/2003 7:00 a 53.3 53.3 53.3 53.4 53.2 85 48.9 0.0 0.0 --- 0.00 29.989
10/11/2003 7:30 a 53.5 53.5 53.5 53.8 53.2 84 48.8 0.0 0.0 --- 0.00 29.998
10/11/2003 8:00 a 54.0 54.0 54.0 54.5 53.7 83 49.0 0.0 0.0 --- 0.00 29.992
10/11/2003 8:30 a 55.4 55.4 55.4 56.7 54.4 80 49.3 0.0 0.0 --- 0.00 29.998
10/11/2003 9:00 a 58.6 58.6 58.6 59.2 56.7 75 50.7 0.0 0.0 --- 0.00 30.007
10/11/2003 9:30 a 60.1 60.1 60.1 61.6 58.9 72 51.1 0.0 0.0 --- 0.00 30.007
10/11/2003 10:00 a 63.0 63.0 63.0 64.0 61.6 69 52.7 0.0 0.0 --- 0.00 29.999
10/11/2003 10:30 a 63.6 63.6 63.6 64.0 63.1 67 52.5 0.0 0.0 --- 0.00 29.995
10/11/2003 11:00 a 64.7 64.7 64.7 65.3 64.0 67 53.5 0.0 0.0 --- 0.00 29.997
10/11/2003 11:30 a 65.9 65.9 65.9 67.0 65.3 66 54.2 0.0 0.0 --- 0.02 29.988
10/11/2003 12:00 p 67.3 67.3 67.3 68.2 66.7 63 54.3 0.0 0.0 --- 0.01 29.984
10/12/2003 1:30 p 76.0 75.6 75.6 79.2 73.3 58 59.8 0.0 0.0 --- 0.00 29.636
10/12/2003 2:00 p 72.0 72.2 72.2 73.3 71.2 61 58.0 0.0 0.0 --- 0.00 29.626
10/12/2003 2:30 p 72.0 72.4 72.4 72.7 72.0 62 58.7 0.0 0.0 --- 0.00 29.614
10/12/2003 3:00 p 73.1 72.8 72.8 73.2 72.6 61 58.6 0.0 0.0 --- 0.00 29.602
10/12/2003 3:30 p 73.0 72.7 72.7 72.8 72.4 60 58.0 0.0 0.0 --- 0.00 29.600
10/12/2003 4:00 p 72.0 72.1 72.1 72.4 71.9 63 58.8 0.0 0.0 --- 0.00 29.589
10/12/2003 4:30 p 72.0 71.9 71.9 72.3 71.3 64 59.1 0.0 0.0 --- 0.00 29.588
10/12/2003 5:00 p 71.0 70.9 70.9 71.3 70.5 65 58.6 0.0 0.0 --- 0.00 29.584
10/12/2003 5:30 p 71.0 70.9 70.9 71.2 70.3 67 59.4 0.0 0.0 --- 0.00 29.584
10/12/2003 6:00 p 70.0 68.9 68.9 70.2 67.5 75 60.7 0.0 0.0 --- 0.00 29.591
10/12/2003 6:30 p 66.2 66.2 66.2 67.5 64.9 82 60.5 0.0 0.0 --- 0.00 29.598
10/12/2003 7:00 p 63.6 63.6 63.6 64.9 62.4 86 59.3 0.0 0.0 --- 0.00 29.610
10/12/2003 7:30 p 61.2 61.2 61.2 62.3 60.3 92 58.9 0.0 0.0 --- 0.00 29.614
10/12/2003 8:00 p 60.3 60.3 60.3 60.5 59.9 91 57.7 0.0 0.0 --- 0.00 29.618
10/12/2003 8:30 p 59.2 59.2 59.2 59.8 58.9 94 57.5 0.0 0.0 --- 0.00 29.615
10/12/2003 9:00 p 58.2 58.2 58.2 58.9 57.5 94 56.5 0.0 0.0 --- 0.00 29.621
10/12/2003 9:30 p 57.2 57.2 57.2 57.5 57.0 95 55.8 0.0 0.0 --- 0.00 29.626
10/12/2003 10:00 p 56.9 56.9 56.9 57.1 56.9 95 55.5 0.0 0.0 --- 0.00 29.626
10/12/2003 10:30 p 56.6 56.6 56.6 56.9 56.2 95 55.2 0.0 0.0 --- 0.00 29.638
10/12/2003 11:00 p 56.1 56.1 56.1 56.2 56.0 95 54.7 0.0 0.0 --- 0.00 29.641
10/12/2003 11:30 p 55.8 55.8 55.8 56.1 55.7 93 53.8 0.0 0.0 --- 0.00 29.647
10/13/2003 12:00 a 56.3 56.3 56.3 58.7 55.7 83 51.2 0.0 0.0 --- 0.00 29.652
10/13/2003 12:30 a 61.1 61.1 61.1 62.0 58.8 75 53.1 0.0 0.0 --- 0.00 29.660
10/13/2003 1:00 a 60.7 60.7 60.7 62.0 59.5 80 54.5 0.0 0.0 --- 0.00 29.667
10/13/2003 1:30 a 59.6 59.6 59.6 61.1 58.9 73 50.9 0.0 0.0 --- 0.00 29.677
10/13/2003 2:00 a 61.3 61.3 61.3 61.9 60.8 68 50.7 0.0 0.0 --- 0.00 29.687
10/13/2003 2:30 a 61.0 61.0 61.0 61.3 60.7 62 47.9 0.0 0.0 --- 0.00 29.696
10/13/2003 3:00 a 60.1 60.1 60.1 60.9 59.4 63 47.5 0.0 0.0 --- 0.00 29.703
10/13/2003 3:30 a 58.2 58.2 58.2 59.4 56.6 69 48.1 0.0 0.0 --- 0.00 29.705
10/13/2003 4:00 a 55.4 55.4 55.4 56.6 54.2 77 48.3 0.0 0.0 --- 0.00 29.718
10/13/2003 4:30 a 54.4 54.4 54.4 55.2 53.6 75 46.7 0.0 0.0 --- 0.00 29.731
10/13/2003 5:00 a 55.5 55.5 55.5 55.8 55.1 76 48.1 0.0 0.0 --- 0.00 29.735
10/13/2003 5:30 a 53.8 53.8 53.8 55.1 52.6 83 48.8 0.0 0.0 --- 0.00 29.739
10/13/2003 6:00 a 52.9 52.9 52.9 53.9 52.1 77 45.9 0.0 0.0 --- 0.00 29.757
10/13/2003 6:30 a 54.6 54.6 54.6 55.0 53.9 73 46.1 0.0 0.0 --- 0.00 29.753
10/13/2003 7:00 a 54.1 54.1 54.1 54.8 53.8 75 46.4 0.0 0.0 --- 0.00 29.767
10/13/2003 7:30 a 53.9 53.9 53.9 54.1 53.7 71 44.7 0.0 0.0 --- 0.00 29.775
10/13/2003 8:00 a 55.0 55.0 55.0 55.7 53.9 68 44.6 0.0 0.0 --- 0.00 29.782
10/13/2003 8:30 a 55.8 55.8 55.8 57.9 55.5 63 43.4 0.0 0.0 --- 0.00 29.796
10/13/2003 9:00 a 58.3 58.3 58.3 59.6 57.9 63 45.8 0.0 0.0 --- 0.00 29.800
10/13/2003 9:30 a 58.4 58.4 58.4 58.8 57.9 61 45.0 0.0 0.0 --- 0.00 29.805
10/13/2003 10:00 a 59.6 59.6 59.6 60.0 58.8 58 44.8 0.0 0.0 --- 0.00 29.806
10/13/2003 10:30 a 60.9 60.9 60.9 61.5 59.9 55 44.6 0.0 0.0 --- 0.00 29.804
10/13/2003 11:00 a 62.2 62.2 62.2 62.7 61.4 52 44.4 0.0 0.0 --- 0.00 29.797
10/13/2003 11:30 a 63.4 63.4 63.4 64.4 62.7 48 43.4 0.0 0.0 --- 0.00 29.789
10/13/2003 12:00 p 64.7 64.7 64.7 65.1 64.3 47 44.0 0.0 0.0 --- 0.00 29.784
10/13/2003 12:30 p 66.1 66.1 66.1 66.6 65.1 45 44.2 0.0 2.0 SE 0.00 29.787
10/13/2003 1:00 p 71.6 74.4 74.4 81.6 66.5 28 39.2 0.0 4.0 SE 0.00 29.775
10/13/2003 1:30 p 76.6 77.5 77.5 84.2 70.8 36 48.5 0.0 3.0 SE 0.00 29.768
10/13/2003 2:00 p 67.6 70.4 70.4 70.8 70.2 38 43.6 0.0 2.0 SE 0.00 29.761
10/13/2003 2:30 p 68.2 70.8 70.8 71.0 70.5 36 42.6 0.0 3.0 ESE 0.00 29.752
10/13/2003 3:00 p 68.2 70.8 70.8 70.9 70.6 36 42.6 0.0 2.0 ESE 0.00 29.746
10/13/2003 3:30 p 68.8 70.7 70.7 70.9 70.5 39 44.6 0.0 2.0 ESE 0.00 29.744
10/13/2003 4:00 p 68.0 70.3 70.3 70.6 70.0 40 44.9 0.0 1.0 ESE 0.00 29.740
10/13/2003 4:30 p 67.0 69.4 69.4 69.9 69.0 40 44.1 0.0 2.0 SE 0.00 29.744
10/13/2003 5:00 p 66.0 68.2 68.2 69.0 67.5 43 44.9 0.0 1.0 SE 0.00 29.741
10/13/2003 5:30 p 66.9 66.9 66.9 67.6 66.4 45 44.9 0.0 1.0 --- 0.00 29.755
10/13/2003 6:00 p 65.8 65.8 65.8 66.6 64.4 49 46.1 0.0 1.0 ESE 0.00 29.754
10/13/2003 6:30 p 62.6 62.6 62.6 64.4 60.8 60 48.5 0.0 0.0 --- 0.00 29.762
10/13/2003 7:00 p 59.2 59.2 59.2 60.8 57.5 69 49.0 0.0 0.0 --- 0.00 29.767
10/13/2003 7:30 p 56.4 56.4 56.4 57.5 55.2 77 49.3 0.0 0.0 --- 0.00 29.774
10/13/2003 8:00 p 54.7 54.7 54.7 55.2 53.8 81 49.0 0.0 0.0 --- 0.00 29.781
10/13/2003 8:30 p 53.1 53.1 53.1 53.9 52.5 85 48.7 0.0 0.0 --- 0.00 29.789
10/13/2003 9:00 p 52.3 52.3 52.3 52.5 51.6 87 48.6 0.0 0.0 --- 0.00 29.798
10/13/2003 9:30 p 51.1 51.1 51.1 51.6 50.8 90 48.3 0.0 0.0 --- 0.00 29.798
10/13/2003 10:00 p 50.2 50.2 50.2 50.8 49.9 91 47.7 0.0 0.0 --- 0.00 29.799
10/13/2003 10:30 p 49.6 49.6 49.6 49.9 49.3 92 47.4 0.0 0.0 --- 0.00 29.801
10/13/2003 11:00 p 49.1 49.1 49.1 49.5 48.9 92 46.9 0.0 0.0 --- 0.00 29.806
10/13/2003 11:30 p 48.5 48.5 48.5 48.9 48.3 92 46.3 0.0 0.0 --- 0.00 29.803
10/14/2003 12:00 a 47.8 47.8 47.8 48.3 47.5 94 46.2 0.0 0.0 --- 0.00 29.797
10/14/2003 12:30 a 47.3 47.3 47.3 47.6 47.0 94 45.7 0.0 0.0 --- 0.00 29.798
10/14/2003 1:00 a 46.7 46.7 46.7 47.0 46.4 94 45.1 0.0 0.0 --- 0.00 29.806
10/14/2003 1:30 a 46.3 46.3 46.3 46.4 46.1 94 44.7 0.0 0.0 --- 0.00 29.811
10/14/2003 2:00 a 46.0 46.0 46.0 46.2 45.8 94 44.4 0.0 0.0 --- 0.00 29.810
10/14/2003 2:30 a 45.6 45.6 45.6 45.8 45.4 95 44.3 0.0 0.0 --- 0.00 29.808
10/14/2003 3:00 a 45.3 45.3 45.3 45.4 45.1 94 43.7 0.0 0.0 --- 0.00 29.808
10/14/2003 3:30 a 45.2 45.2 45.2 45.3 45.1 95 43.9 0.0 0.0 --- 0.00 29.801
10/14/2003 4:00 a 45.3 45.3 45.3 45.4 45.2 94 43.7 0.0 0.0 --- 0.00 29.793
10/14/2003 4:30 a 45.4 45.4 45.4 45.6 45.2 95 44.1 0.0 0.0 --- 0.00 29.789
10/14/2003 5:00 a 45.5 45.5 45.5 45.6 45.4 94 43.9 0.0 0.0 --- 0.00 29.799
10/14/2003 5:30 a 45.5 45.5 45.5 45.7 45.3 95 44.2 0.0 0.0 --- 0.00 29.792
10/14/2003 6:00 a 45.8 45.8 45.8 45.9 45.6 95 44.5 0.0 0.0 --- 0.00 29.799
10/14/2003 6:30 a 46.0 46.0 46.0 46.3 45.8 95 44.7 0.0 0.0 --- 0.00 29.794
10/14/2003 7:00 a 46.6 46.6 46.6 47.0 46.3 95 45.2 0.0 0.0 --- 0.00 29.804
10/14/2003 7:30 a 47.2 47.2 47.2 47.6 47.0 95 45.8 0.0 0.0 --- 0.00 29.803
10/14/2003 8:00 a 48.3 48.3 48.3 49.2 47.5 95 46.9 0.0 0.0 --- 0.00 29.796
10/14/2003 8:30 a 50.5 50.5 50.5 51.7 49.2 94 48.8 0.0 0.0 --- 0.00 29.805
10/14/2003 9:00 a 53.1 53.1 53.1 54.2 51.7 89 49.9 0.0 0.0 --- 0.00 29.791
10/14/2003 9:30 a 54.4 54.4 54.4 55.4 54.0 86 50.3 0.0 0.0 --- 0.00 29.788
10/14/2003 10:00 a 58.0 58.0 58.0 60.5 55.5 76 50.5 0.0 0.0 --- 0.00 29.783
10/14/2003 10:30 a 61.6 61.6 61.6 63.2 60.5 71 52.1 0.0 0.0 --- 0.00 29.770
10/14/2003 11:00 a 64.0 64.0 64.0 65.0 63.2 70 54.0 0.0 0.0 --- 0.00 29.751
10/14/2003 11:30 a 65.3 65.3 65.3 65.8 64.9 69 54.9 0.0 1.0 N 0.00 29.739
10/14/2003 12:00 p 66.6 66.6 66.6 67.1 65.8 69 56.1 0.0 2.0 N 0.00 29.721
10/14/2003 12:30 p 67.0 67.0 67.0 67.5 66.6 69 56.5 0.0 5.0 NW 0.00 29.703
10/14/2003 1:00 p 67.4 67.4 67.4 67.8 67.0 69 56.9 1.0 3.0 N 0.00 29.689
10/14/2003 1:30 p 67.5 67.5 67.5 68.0 67.0 65 55.3 1.0 4.0 N 0.00 29.672
10/14/2003 2:00 p 68.0 68.0 68.0 68.2 67.8 62 54.5 1.0 4.0 N 0.00 29.663
10/14/2003 2:30 p 67.3 67.3 67.3 68.2 66.4 64 54.7 1.0 4.0 NNW 0.00 29.645
10/14/2003 3:00 p 66.6 66.6 66.6 67.1 66.3 64 54.1 1.0 3.0 NNW 0.00 29.637
10/14/2003 3:30 p 67.5 67.5 67.5 68.4 67.1 61 53.6 1.0 3.0 NW 0.00 29.619
10/14/2003 4:00 p 67.3 67.3 67.3 68.5 66.8 61 53.4 1.0 5.0 NNW 0.00 29.596
10/14/2003 4:30 p 66.3 66.3 66.3 67.0 65.6 63 53.3 1.0 4.0 N 0.00 29.576
10/14/2003 5:00 p 65.3 65.3 65.3 65.7 64.8 61 51.5 1.0 4.0 NNW 0.00 29.561
10/14/2003 5:30 p 64.3 64.3 64.3 64.8 63.9 63 51.5 1.0 4.0 NNW 0.00 29.548
10/14/2003 6:00 p 63.3 63.3 63.3 64.0 62.7 66 51.8 1.0 4.0 NNW 0.00 29.531
10/14/2003 6:30 p 62.1 62.1 62.1 62.7 61.7 72 53.0 0.0 3.0 NNW 0.00 29.517
10/14/2003 7:00 p 61.6 61.6 61.6 61.8 61.6 77 54.3 0.0 3.0 NNW 0.00 29.501
10/14/2003 7:30 p 61.7 61.7 61.7 61.9 61.6 77 54.4 0.0 3.0 N 0.00 29.468
10/14/2003 8:00 p 61.5 61.5 61.5 61.8 61.2 79 54.9 0.0 4.0 NNW 0.00 29.442
10/14/2003 8:30 p 61.0 61.0 61.0 61.2 60.9 81 55.1 1.0 3.0 N 0.00 29.422
10/14/2003 9:00 p 61.4 61.4 61.4 61.8 61.2 81 55.5 1.0 6.0 N 0.00 29.379
10/14/2003 9:30 p 61.7 61.7 61.7 61.8 61.5 84 56.8 1.0 4.0 N 0.00 29.339
10/14/2003 10:00 p 62.1 62.1 62.1 62.5 61.7 84 57.2 1.0 6.0 NNW 0.00 29.310
10/14/2003 10:30 p 61.4 61.4 61.4 62.5 60.7 97 60.5 1.0 4.0 NNW 0.00 29.271
10/14/2003 11:00 p 60.8 60.8 60.8 61.1 60.7 98 60.2 1.0 5.0 NNW 0.06 29.220
10/14/2003 11:30 p 61.3 61.3 61.3 61.4 61.1 99 61.0 1.0 5.0 NNW 0.02 29.195
10/15/2003 12:00 a 60.7 60.7 60.7 61.2 60.1 100 60.7 1.0 5.0 NNW 0.03 29.142
10/15/2003 12:30 a 59.8 59.8 59.8 60.1 59.5 100 59.8 2.0 8.0 NNW 0.05 29.094
10/15/2003 1:00 a 61.0 61.0 61.0 61.7 60.1 100 61.0 1.0 5.0 NNW 0.06 29.035
10/15/2003 1:30 a 62.2 62.2 62.2 62.7 61.7 100 62.2 1.0 6.0 N 0.04 28.999
10/15/2003 2:00 a 62.0 62.0 62.0 62.9 59.9 100 62.0 1.0 3.0 NW 0.04 28.994
10/15/2003 2:30 a 58.5 58.5 58.5 59.9 56.4 100 58.5 1.0 7.0 SSE 0.02 29.035
10/15/2003 3:00 a 55.9 55.9 55.9 56.4 55.7 100 55.9 0.0 4.0 SE 0.02 29.078
10/15/2003 3:30 a 55.3 55.3 55.3 55.7 54.9 100 55.3 0.0 2.0 W 0.02 29.043
10/15/2003 4:00 a 54.9 54.9 54.9 55.0 54.9 100 54.9 0.0 0.0 --- 0.01 29.022
10/15/2003 4:30 a 55.0 55.0 55.0 55.1 54.9 100 55.0 0.0 2.0 W 0.01 29.031
10/15/2003 5:00 a 55.0 55.0 55.0 55.1 54.9 100 55.0 0.0 1.0 --- 0.00 29.038
10/15/2003 5:30 a 54.9 54.9 54.9 55.0 54.8 100 54.9 0.0 1.0 --- 0.01 29.041
10/15/2003 6:00 a 54.6 54.6 54.6 55.0 54.0 100 54.6 0.0 2.0 NNE 0.01 29.048
10/15/2003 6:30 a 53.8 53.8 53.8 54.0 53.2 100 53.8 0.0 2.0 NW 0.00 29.068
10/15/2003 7:00 a 53.2 53.2 53.2 53.3 53.1 100 53.2 0.0 2.0 SSE 0.00 29.075
10/15/2003 7:30 a 53.3 53.3 53.3 53.3 53.1 100 53.3 0.0 3.0 SSE 0.01 29.085
10/15/2003 8:00 a 53.6 53.6 53.6 54.3 53.1 100 53.6 0.0 4.0 SSE 0.00 29.101
10/15/2003 8:30 a 54.2 54.2 54.2 54.4 54.1 100 54.2 0.0 4.0 S 0.00 29.122
10/15/2003 9:00 a 55.1 55.1 55.1 55.9 54.4 100 55.1 1.0 7.0 SSE 0.00 29.143
10/15/2003 9:30 a 56.4 56.4 56.4 57.2 55.9 100 56.4 1.0 6.0 SSE 0.00 29.161
10/15/2003 10:00 a 58.1 58.1 58.1 58.7 57.2 97 57.3 1.0 4.0 WNW 0.00 29.179
10/15/2003 10:30 a 59.0 59.0 59.0 59.5 58.5 89 55.8 1.0 5.0 SSE 0.01 29.197
10/15/2003 11:00 a 59.4 59.4 59.4 59.8 59.2 81 53.6 1.0 6.0 SSE 0.00 29.216
10/15/2003 11:30 a 60.6 60.6 60.6 61.3 59.7 64 48.4 1.0 7.0 SSE 0.00 29.219
10/15/2003 12:00 p 61.2 61.2 61.2 61.8 60.8 60 47.2 1.0 7.0 S 0.00 29.242
10/15/2003 12:30 p 61.2 61.2 61.2 61.7 61.0 56 45.4 2.0 7.0 SSE 0.00 29.259
10/15/2003 1:00 p 65.1 65.1 65.1 68.9 61.6 45 43.3 2.0 7.0 S 0.00 29.278
10/15/2003 1:30 p 64.7 64.7 64.7 67.7 63.1 49 45.1 1.0 7.0 S 0.00 29.291
10/15/2003 2:00 p 62.6 62.6 62.6 63.1 62.1 47 42.1 1.0 7.0 S 0.00 29.318
10/15/2003 2:30 p 62.0 62.0 62.0 62.5 61.6 45 40.4 1.0 7.0 S 0.00 29.337
10/15/2003 3:00 p 61.5 61.5 61.5 62.4 60.8 46 40.5 1.0 6.0 SSE 0.00 29.351
10/15/2003 3:30 p 62.2 62.2 62.2 63.1 61.0 41 38.2 1.0 13.0 S 0.01 29.374
10/15/2003 4:00 p 60.7 60.7 60.7 61.8 60.2 42 37.5 2.0 9.0 SSE 0.00 29.389
10/15/2003 4:30 p 59.6 59.6 59.6 60.2 59.1 38 34.0 1.0 8.0 SSE 0.00 29.416
10/15/2003 5:00 p 58.8 58.8 58.8 59.1 58.6 37 32.6 1.0 14.0 SE 0.00 29.431
10/15/2003 5:30 p 58.0 58.0 58.0 58.6 57.6 35 30.5 1.0 7.0 SE 0.00 29.460
10/15/2003 6:00 p 57.0 57.0 57.0 57.7 56.4 36 30.3 1.0 8.0 SSE 0.00 29.483
10/15/2003 6:30 p 56.0 56.0 56.0 56.4 55.6 36 29.4 1.0 7.0 SSE 0.00 29.518
10/15/2003 7:00 p 55.4 55.4 55.4 55.6 55.1 38 30.2 1.0 6.0 SE 0.00 29.549
10/15/2003 7:30 p 54.5 54.5 54.5 55.1 53.9 40 30.7 1.0 7.0 SSE 0.00 29.574
10/15/2003 8:00 p 54.0 54.0 54.0 54.2 53.6 41 30.9 1.0 5.0 SSE 0.00 29.591
10/15/2003 8:30 p 53.2 53.2 53.2 53.6 53.0 43 31.3 0.0 4.0 SE 0.00 29.610
10/15/2003 9:00 p 52.5 52.5 52.5 53.0 52.2 46 32.3 0.0 4.0 S 0.00 29.638
10/15/2003 9:30 p 51.7 51.7 51.7 52.2 51.3 48 32.7 0.0 4.0 ESE 0.00 29.644
10/15/2003 10:00 p 51.2 51.2 51.2 51.5 50.7 51 33.7 0.0 3.0 SE 0.00 29.654
10/15/2003 10:30 p 50.3 50.3 50.3 50.7 50.0 53 33.8 0.0 2.0 SSE 0.00 29.667
10/15/2003 11:00 p 50.3 50.3 50.3 50.4 50.1 54 34.3 0.0 3.0 N 0.00 29.682
10/15/2003 11:30 p 50.1 50.1 50.1 50.5 49.3 57 35.5 0.0 4.0 SSE 0.00 29.694
10/16/2003 12:00 a 49.1 49.1 49.1 49.3 48.8 59 35.4 0.0 2.0 N 0.00 29.708
10/16/2003 12:30 a 47.7 47.7 47.7 48.8 46.5 66 36.9 0.0 0.0 --- 0.00 29.719
10/16/2003 1:00 a 45.7 45.7 45.7 46.5 45.3 68 35.8 0.0 0.0 --- 0.00 29.731
10/16/2003 1:30 a 45.1 45.1 45.1 45.4 44.8 71 36.3 0.0 0.0 --- 0.00 29.736
10/16/2003 2:00 a 43.8 43.8 43.8 44.8 42.8 78 37.4 0.0 0.0 --- 0.00 29.748
10/16/2003 2:30 a 42.2 42.2 42.2 42.8 41.9 81 36.8 0.0 0.0 --- 0.00 29.762
10/16/2003 3:00 a 41.4 41.4 41.4 41.9 41.0 83 36.6 0.0 0.0 --- 0.00 29.772
10/16/2003 3:30 a 40.4 40.4 40.4 41.0 39.8 85 36.3 0.0 0.0 --- 0.00 29.775
10/16/2003 4:00 a 39.6 39.6 39.6 39.8 39.5 88 36.3 0.0 0.0 --- 0.00 29.785
10/16/2003 4:30 a 39.6 39.6 39.6 39.7 39.4 87 36.1 0.0 0.0 --- 0.00 29.794
10/16/2003 5:00 a 39.6 39.6 39.6 39.9 39.3 88 36.3 0.0 0.0 --- 0.00 29.805
10/16/2003 5:30 a 39.2 39.2 39.2 39.4 38.9 88 36.0 0.0 0.0 --- 0.00 29.814
10/16/2003 6:00 a 38.5 38.5 38.5 38.9 38.3 90 35.8 0.0 0.0 --- 0.00 29.832
10/16/2003 6:30 a 38.2 38.2 38.2 38.3 37.9 91 35.8 0.0 0.0 --- 0.00 29.841
10/16/2003 7:00 a 37.8 37.8 37.8 37.9 37.6 92 35.7 0.0 0.0 --- 0.00 29.843
10/16/2003 7:30 a 37.7 37.7 37.7 37.8 37.6 92 35.6 0.0 0.0 --- 0.00 29.850
10/16/2003 8:00 a 38.9 38.9 38.9 39.9 37.6 91 36.5 0.0 0.0 --- 0.00 29.848
10/16/2003 8:30 a 41.2 41.2 41.2 42.6 39.9 86 37.3 0.0 0.0 --- 0.00 29.853
10/16/2003 9:00 a 44.6 44.6 44.6 46.7 42.6 78 38.2 0.0 0.0 --- 0.00 29.862
10/16/2003 9:30 a 48.7 48.7 48.7 50.3 46.7 69 39.0 0.0 0.0 --- 0.01 29.863
10/16/2003 10:00 a 51.6 51.6 51.6 52.9 50.3 64 39.8 0.0 1.0 NNW 0.00 29.860
10/16/2003 10:30 a 54.7 54.7 54.7 56.0 52.9 60 41.1 0.0 2.0 NNW 0.00 29.861
10/16/2003 11:00 a 57.7 57.7 57.7 58.5 56.0 53 40.7 0.0 2.0 NNW 0.00 29.861
10/16/2003 11:30 a 59.3 59.3 59.3 60.0 58.5 50 40.7 0.0 3.0 WNW 0.00 29.853
10/16/2003 12:00 p 60.8 60.8 60.8 61.5 60.0 45 39.3 1.0 6.0 SSE 0.00 29.844
10/16/2003 12:30 p 62.4 62.4 62.4 63.2 61.5 43 39.6 1.0 4.0 S 0.00 29.833
10/16/2003 1:00 p 66.0 70.3 70.3 77.2 63.3 26 33.8 1.0 4.0 SSW 0.00 29.829
10/16/2003 1:30 p 68.4 71.1 71.1 77.3 66.8 37 43.5 1.0 5.0 SSE 0.00 29.818
10/16/2003 2:00 p 66.9 66.9 66.9 68.0 65.8 36 39.1 1.0 7.0 S 0.00 29.817
10/16/2003 2:30 p 66.0 66.0 66.0 67.3 65.7 35 37.6 1.0 6.0 S 0.00 29.814
10/16/2003 3:00 p 65.9 65.9 65.9 67.5 64.6 37 38.9 0.0 4.0 ESE 0.00 29.811
10/16/2003 3:30 p 64.6 64.6 64.6 64.8 64.4 37 37.8 0.0 2.0 SSE 0.00 29.818
10/16/2003 4:00 p 64.6 64.6 64.6 65.0 64.1 40 39.8 0.0 4.0 SSW 0.00 29.824
10/16/2003 4:30 p 63.8 63.8 63.8 64.1 63.5 40 39.0 0.0 3.0 N 0.00 29.830
10/16/2003 5:00 p 62.8 62.8 62.8 64.1 61.6 43 40.0 0.0 4.0 N 0.00 29.838
10/16/2003 5:30 p 60.4 60.4 60.4 61.6 59.0 49 41.2 0.0 4.0 E 0.00 29.847
10/16/2003 6:00 p 59.1 59.1 59.1 59.7 58.7 47 38.9 0.0 3.0 NW 0.00 29.849
10/16/2003 6:30 p 59.3 59.3 59.3 59.7 59.0 49 40.2 0.0 3.0 SE 0.00 29.852
10/16/2003 7:00 p 58.7 58.7 58.7 59.1 58.4 51 40.6 0.0 2.0 SE 0.00 29.863
10/16/2003 7:30 p 58.4 58.4 58.4 58.6 58.1 51 40.4 0.0 3.0 SE 0.00 29.872
10/16/2003 8:00 p 57.3 57.3 57.3 58.1 56.7 55 41.3 0.0 4.0 WSW 0.00 29.876
10/16/2003 8:30 p 56.1 56.1 56.1 56.7 55.4 58 41.5 0.0 2.0 SSE 0.00 29.890
10/16/2003 9:00 p 56.0 56.0 56.0 56.1 55.6 59 41.9 0.0 2.0 SE 0.00 29.894
10/16/2003 9:30 p 55.8 55.8 55.8 55.9 55.6 61 42.6 0.0 1.0 SE 0.00 29.910
10/16/2003 10:00 p 55.2 55.2 55.2 55.6 55.0 64 43.3 0.0 0.0 --- 0.00 29.907
10/16/2003 10:30 p 54.8 54.8 54.8 55.0 54.3 67 44.1 0.0 0.0 --- 0.00 29.915
10/16/2003 11:00 p 53.3 53.3 53.3 54.3 52.5 71 44.1 0.0 0.0 --- 0.00 29.926
10/16/2003 11:30 p 51.8 51.8 51.8 52.5 51.0 77 44.8 0.0 0.0 --- 0.00 29.925
10/17/2003 12:00 a 50.8 50.8 50.8 51.0 50.6 80 44.9 0.0 0.0 --- 0.00 29.934
10/17/2003 12:30 a 50.5 50.5 50.5 50.7 50.3 80 44.6 0.0 0.0 --- 0.00 29.935
10/17/2003 1:00 a 51.0 51.0 51.0 51.3 50.7 79 44.7 0.0 0.0 --- 0.00 29.932
10/17/2003 2:00 a 50.0 50.0 50.0 50.7 49.6 96 48.9 0.0 0.0 --- 0.00 29.962
10/17/2003 2:30 a 49.6 49.6 49.6 49.7 49.5 97 48.8 0.0 0.0 --- 0.00 29.967
10/17/2003 3:00 a 49.5 49.5 49.5 49.6 49.4 98 49.0 0.0 0.0 --- 0.00 29.954
10/17/2003 3:30 a 49.4 49.4 49.4 49.5 49.3 98 48.9 0.0 1.0 S 0.00 29.958
10/17/2003 4:00 a 49.3 49.3 49.3 49.5 49.2 98 48.8 0.0 0.0 --- 0.00 29.951
10/17/2003 4:30 a 49.2 49.2 49.2 49.3 49.2 98 48.7 0.0 0.0 --- 0.00 29.953
10/17/2003 5:00 a 49.4 49.4 49.4 49.4 49.3 98 48.9 0.0 0.0 --- 0.00 29.972
10/17/2003 5:30 a 49.4 49.4 49.4 49.5 48.6 98 48.9 0.0 0.0 --- 0.00 29.975
10/17/2003 6:00 a 48.1 48.1 48.1 48.6 47.7 98 47.6 0.0 0.0 --- 0.00 29.986
10/17/2003 6:30 a 47.2 47.2 47.2 47.7 46.9 98 46.7 0.0 0.0 --- 0.00 29.993
10/17/2003 7:00 a 47.1 47.1 47.1 47.2 47.0 98 46.6 0.0 0.0 --- 0.00 29.996
10/17/2003 7:30 a 46.9 46.9 46.9 47.0 46.8 98 46.4 0.0 0.0 --- 0.00 29.991
10/17/2003 8:00 a 47.2 47.2 47.2 47.5 46.9 98 46.7 0.0 0.0 --- 0.00 30.005
10/17/2003 8:30 a 47.7 47.7 47.7 47.9 47.5 98 47.2 0.0 0.0 --- 0.00 30.011
10/17/2003 9:00 a 47.9 47.9 47.9 48.5 47.6 98 47.4 0.0 0.0 --- 0.00 30.026
10/17/2003 9:30 a 49.9 49.9 49.9 51.0 48.5 99 49.6 0.0 0.0 --- 0.00 30.038
10/17/2003 10:00 a 51.4 51.4 51.4 52.1 50.7 98 50.9 0.0 0.0 --- 0.00 30.041
10/17/2003 10:30 a 52.2 52.2 52.2 52.7 51.9 96 51.1 0.0 0.0 --- 0.00 30.040
10/17/2003 11:00 a 53.0 53.0 53.0 53.2 52.7 94 51.3 0.0 0.0 --- 0.00 30.037
10/17/2003 11:30 a 52.4 52.4 52.4 53.0 52.2 95 51.0 0.0 0.0 --- 0.00 30.035
10/17/2003 12:00 p 52.9 52.9 52.9 53.0 52.7 95 51.5 0.0 0.0 --- 0.00 30.041
10/17/2003 12:30 p 53.3 53.3 53.3 53.5 53.0 94 51.6 0.0 0.0 --- 0.00 30.027
10/17/2003 1:00 p 53.0 53.0 53.0 53.3 52.8 96 51.9 0.0 0.0 --- 0.00 30.012
10/17/2003 1:30 p 53.2 53.2 53.2 53.4 53.0 94 51.5 0.0 0.0 --- 0.00 30.001
10/17/2003 2:00 p 53.1 53.1 53.1 53.5 52.9 95 51.7 0.0 0.0 --- 0.00 29.992
10/17/2003 2:30 p 53.8 53.8 53.8 53.9 53.5 91 51.2 0.0 0.0 --- 0.00 29.987
10/17/2003 3:00 p 54.0 54.0 54.0 54.2 53.9 86 49.9 0.0 0.0 --- 0.00 29.985
10/17/2003 3:30 p 54.5 54.5 54.5 54.7 54.2 83 49.5 0.0 0.0 --- 0.01 29.972
10/17/2003 4:00 p 53.5 53.5 53.5 54.4 53.0 82 48.1 0.0 0.0 --- 0.00 29.969
10/17/2003 4:30 p 52.3 52.3 52.3 53.0 51.5 85 47.9 0.0 0.0 --- 0.00 29.980
10/17/2003 5:00 p 51.6 51.6 51.6 51.8 51.3 80 45.6 0.0 0.0 --- 0.00 29.973
10/17/2003 5:30 p 51.5 51.5 51.5 51.8 51.3 76 44.2 0.0 0.0 --- 0.00 29.964
10/17/2003 6:00 p 51.2 51.2 51.2 51.5 50.7 77 44.2 0.0 0.0 --- 0.00 29.962
10/17/2003 6:30 p 50.7 50.7 50.7 50.8 50.5 77 43.8 0.0 0.0 --- 0.00 29.974
10/17/2003 7:00 p 49.7 49.7 49.7 50.6 48.7 87 46.0 0.0 0.0 --- 0.00 29.997
10/17/2003 7:30 p 47.3 47.3 47.3 48.7 46.4 96 46.2 0.0 1.0 SSE 0.00 30.018
10/17/2003 8:00 p 46.3 46.3 46.3 46.5 46.0 97 45.5 0.0 1.0 SE 0.00 30.017
10/17/2003 8:30 p 46.0 46.0 46.0 46.1 45.9 98 45.5 0.0 1.0 --- 0.00 30.009
10/17/2003 9:00 p 45.9 45.9 45.9 46.1 45.8 98 45.4 0.0 0.0 --- 0.00 30.001
10/17/2003 9:30 p 46.0 46.0 46.0 46.5 45.8 98 45.5 0.0 0.0 --- 0.00 30.002
10/17/2003 10:00 p 45.9 45.9 45.9 46.5 45.7 98 45.4 0.0 0.0 --- 0.00 30.000
10/17/2003 10:30 p 45.7 45.7 45.7 45.8 45.6 98 45.2 0.0 0.0 --- 0.00 29.995
10/17/2003 11:00 p 45.5 45.5 45.5 45.7 45.4 98 45.0 0.0 0.0 --- 0.00 29.988
10/17/2003 11:30 p 45.3 45.3 45.3 45.4 45.2 99 45.0 0.0 0.0 --- 0.00 29.977
10/18/2003 12:00 a 45.2 45.2 45.2 45.2 45.1 98 44.7 0.0 0.0 --- 0.00 29.972
10/18/2003 12:30 a 45.3 45.3 45.3 45.4 45.2 99 45.0 0.0 0.0 --- 0.00 29.965
10/18/2003 1:00 a 45.3 45.3 45.3 45.4 45.2 99 45.0 0.0 0.0 --- 0.00 29.958
10/18/2003 1:30 a 45.2 45.2 45.2 45.4 45.2 99 44.9 0.0 0.0 --- 0.00 29.956
10/18/2003 2:00 a 45.4 45.4 45.4 45.5 45.2 99 45.1 0.0 0.0 --- 0.00 29.949
10/18/2003 2:30 a 45.3 45.3 45.3 45.4 45.1 99 45.0 0.0 0.0 --- 0.00 29.943
10/18/2003 3:00 a 45.5 45.5 45.5 45.5 45.3 99 45.2 0.0 0.0 --- 0.00 29.939
10/18/2003 3:30 a 44.6 44.6 44.6 45.4 44.0 99 44.3 0.0 0.0 --- 0.00 29.940
10/18/2003 4:00 a 43.8 43.8 43.8 44.1 43.3 99 43.5 0.0 0.0 --- 0.00 29.936
10/18/2003 4:30 a 42.4 42.4 42.4 43.3 41.5 99 42.1 0.0 0.0 --- 0.00 29.932
10/18/2003 5:00 a 40.9 40.9 40.9 41.5 40.6 98 40.4 0.0 0.0 --- 0.00 29.931
10/18/2003 5:30 a 40.4 40.4 40.4 40.6 40.3 99 40.1 0.0 0.0 --- 0.00 29.931
10/18/2003 6:00 a 40.2 40.2 40.2 40.3 40.1 98 39.7 0.0 0.0 --- 0.00 29.924
10/18/2003 6:30 a 40.1 40.1 40.1 40.3 40.0 98 39.6 0.0 0.0 --- 0.00 29.924
10/18/2003 7:00 a 40.2 40.2 40.2 40.6 40.1 98 39.7 0.0 0.0 --- 0.00 29.936
10/18/2003 7:30 a 41.1 41.1 41.1 41.3 40.5 98 40.6 0.0 0.0 --- 0.00 29.940
10/18/2003 8:00 a 41.6 41.6 41.6 42.0 41.3 98 41.1 0.0 0.0 --- 0.00 29.936
10/18/2003 8:30 a 42.2 42.2 42.2 42.5 42.0 98 41.7 0.0 0.0 --- 0.00 29.932
10/18/2003 9:00 a 43.4 43.4 43.4 44.1 42.4 99 43.1 0.0 0.0 --- 0.00 29.942
10/18/2003 9:30 a 45.3 45.3 45.3 45.9 44.1 99 45.0 0.0 0.0 --- 0.00 29.947
10/18/2003 10:00 a 46.4 46.4 46.4 47.3 45.6 99 46.1 0.0 0.0 --- 0.00 29.960
10/18/2003 10:30 a 47.3 47.3 47.3 48.1 46.7 98 46.8 0.0 1.0 SSE 0.00 29.947
10/18/2003 11:00 a 49.4 49.4 49.4 50.9 47.7 97 48.6 0.0 1.0 SE 0.00 29.949
10/18/2003 11:30 a 49.2 49.2 49.2 49.7 48.9 97 48.4 0.0 2.0 SE 0.00 29.940
10/18/2003 12:00 p 50.3 50.3 50.3 51.4 49.4 97 49.5 0.0 2.0 SE 0.00 29.931
10/18/2003 12:30 p 51.4 51.4 51.4 52.1 50.9 95 50.0 0.0 1.0 SE 0.00 29.918
10/18/2003 1:00 p 59.7 59.7 59.7 68.3 51.8 62 46.7 0.0 3.0 SE 0.00 29.899
10/18/2003 1:30 p 58.4 58.4 58.4 64.2 56.2 54 41.8 0.0 3.0 ESE 0.00 29.884
10/18/2003 2:00 p 56.7 56.7 56.7 57.2 56.0 52 39.3 0.0 3.0 ESE 0.00 29.863
10/18/2003 2:30 p 56.8 56.8 56.8 57.2 56.6 49 37.9 0.0 2.0 SE 0.00 29.853
10/18/2003 3:00 p 56.4 56.4 56.4 57.3 55.6 49 37.5 0.0 2.0 SE 0.00 29.840
10/18/2003 3:30 p 55.4 55.4 55.4 56.7 54.6 52 38.1 0.0 1.0 SE 0.00 29.836
10/18/2003 4:00 p 54.9 54.9 54.9 55.3 54.2 57 40.0 0.0 1.0 SE 0.00 29.827
10/18/2003 4:30 p 54.5 54.5 54.5 54.8 53.8 53 37.7 0.0 2.0 ENE 0.00 29.820
10/18/2003 5:00 p 52.9 52.9 52.9 53.8 52.4 51 35.3 0.0 1.0 --- 0.00 29.817
10/18/2003 5:30 p 52.3 52.3 52.3 52.8 51.8 55 36.6 0.0 1.0 --- 0.00 29.811
10/18/2003 6:00 p 50.6 50.6 50.6 51.8 49.2 66 39.7 0.0 0.0 --- 0.00 29.819
10/18/2003 6:30 p 47.8 47.8 47.8 49.2 46.4 72 39.2 0.0 0.0 --- 0.00 29.827
10/18/2003 7:00 p 45.4 45.4 45.4 46.4 44.8 78 39.0 0.0 0.0 --- 0.00 29.831
10/18/2003 7:30 p 44.7 44.7 44.7 44.9 44.3 82 39.6 0.0 0.0 --- 0.00 29.837
10/18/2003 8:00 p 44.2 44.2 44.2 44.4 44.1 83 39.4 0.0 0.0 --- 0.00 29.847
10/18/2003 8:30 p 43.3 43.3 43.3 44.1 42.6 87 39.7 0.0 0.0 --- 0.00 29.843
10/18/2003 9:00 p 42.1 42.1 42.1 42.6 41.9 90 39.4 0.0 0.0 --- 0.00 29.847
10/18/2003 9:30 p 42.3 42.3 42.3 42.7 42.1 90 39.6 0.0 0.0 --- 0.00 29.839
10/18/2003 10:00 p 43.3 43.3 43.3 43.6 42.7 90 40.6 0.0 0.0 --- 0.00 29.841
10/18/2003 10:30 p 43.4 43.4 43.4 43.6 42.7 89 40.4 0.0 0.0 --- 0.00 29.845
10/18/2003 11:00 p 41.9 41.9 41.9 42.7 41.2 93 40.0 0.0 0.0 --- 0.00 29.840
10/18/2003 11:30 p 41.2 41.2 41.2 41.7 40.9 94 39.6 0.0 0.0 --- 0.00 29.841
10/19/2003 12:00 a 42.2 42.2 42.2 42.7 41.7 92 40.0 0.0 0.0 --- 0.00 29.834
10/19/2003 12:30 a 43.0 43.0 43.0 43.3 42.7 91 40.6 0.0 0.0 --- 0.00 29.825
10/19/2003 1:00 a 43.4 43.4 43.4 43.5 43.3 92 41.2 0.0 0.0 --- 0.00 29.825
10/19/2003 1:30 a 43.6 43.6 43.6 43.7 43.5 93 41.7 0.0 0.0 --- 0.00 29.820
10/19/2003 2:00 a 43.7 43.7 43.7 43.8 43.6 93 41.8 0.0 0.0 --- 0.00 29.822
10/19/2003 2:30 a 43.9 43.9 43.9 44.0 43.8 93 42.0 0.0 0.0 --- 0.00 29.819
10/19/2003 3:00 a 43.9 43.9 43.9 44.0 43.9 93 42.0 0.0 0.0 --- 0.00 29.799
10/19/2003 3:30 a 44.1 44.1 44.1 44.2 44.0 92 41.9 0.0 0.0 --- 0.00 29.797
10/19/2003 4:00 a 44.1 44.1 44.1 44.2 44.1 92 41.9 0.0 0.0 --- 0.00 29.787
10/19/2003 4:30 a 43.9 43.9 43.9 44.2 43.7 93 42.0 0.0 0.0 --- 0.00 29.778
10/19/2003 5:00 a 44.0 44.0 44.0 44.2 43.8 92 41.8 0.0 0.0 --- 0.00 29.773
10/19/2003 5:30 a 44.3 44.3 44.3 44.4 44.1 93 42.4 0.0 0.0 --- 0.00 29.768
10/19/2003 6:00 a 44.4 44.4 44.4 44.5 44.4 92 42.2 0.0 0.0 --- 0.00 29.768
10/19/2003 6:30 a 44.7 44.7 44.7 44.9 44.5 92 42.5 0.0 0.0 --- 0.00 29.762
10/19/2003 7:00 a 45.0 45.0 45.0 45.1 44.9 92 42.8 0.0 0.0 --- 0.00 29.765
10/19/2003 7:30 a 45.0 45.0 45.0 45.1 44.9 95 43.7 0.0 0.0 --- 0.00 29.772
10/19/2003 8:00 a 44.8 44.8 44.8 45.0 44.8 97 44.0 0.0 0.0 --- 0.00 29.761
10/19/2003 8:30 a 45.2 45.2 45.2 45.8 44.8 98 44.7 0.0 0.0 --- 0.00 29.755
10/19/2003 9:00 a 46.5 46.5 46.5 47.4 45.8 98 46.0 0.0 0.0 --- 0.00 29.744
10/19/2003 9:30 a 48.1 48.1 48.1 48.5 47.4 98 47.6 0.0 0.0 --- 0.00 29.739
10/19/2003 10:00 a 48.7 48.7 48.7 49.0 48.4 98 48.2 0.0 0.0 --- 0.00 29.748
10/19/2003 10:30 a 49.1 49.1 49.1 49.3 48.9 98 48.6 0.0